Time,TemperatureF,DewpointF,PressureIn,WindDirection,WindDirectionDegrees,WindSpeedMPH,WindSpeedGustMPH,Humidity,HourlyPrecipIn,Conditions,Clouds,dailyrainin,SoftwareType,DateUTC
2014-10-01 00:02:00,77.8,76.6,29.86,NW,305,0.0,0.0,96,0.00,,---,0.00,VWS V15.00,2014-10-01 04:02:00,
2014-10-01 00:03:00,77.8,76.6,29.86,NW,305,0.0,0.0,96,0.00,,---,0.00,VWS V15.00,2014-10-01 04:03:00,
2014-10-01 00:08:00,77.8,76.6,29.86,NW,305,0.0,0.0,96,0.00,,---,0.00,VWS V15.00,2014-10-01 04:08:00,
2014-10-01 00:09:00,77.7,76.5,29.86,NW,305,0.0,0.0,96,0.00,,---,0.00,VWS V15.00,2014-10-01 04:09:00,
2014-10-01 00:13:00,77.8,76.6,29.86,NW,305,0.0,0.0,96,0.00,,---,0.00,VWS V15.00,2014-10-01 04:13:00,
2014-10-01 00:18:00,77.8,76.6,29.87,NW,305,0.0,0.0,96,0.00,,---,0.00,VWS V15.00,2014-10-01 04:18:00,
2014-10-01 00:20:00,77.8,76.6,29.87,NW,305,0.0,0.0,96,0.00,,---,0.00,VWS V15.00,2014-10-01 04:20:00,
2014-10-01 00:22:00,77.8,76.6,29.87,NW,305,0.0,0.0,96,0.00,,---,0.00,VWS V15.00,2014-10-01 04:22:00,
2014-10-01 00:25:00,77.7,76.5,29.86,NW,305,0.0,0.0,96,0.00,,---,0.00,VWS V15.00,2014-10-01 04:25:00,
2014-10-01 00:26:00,77.7,76.5,29.86,NW,305,0.0,0.0,96,0.00,,---,0.00,VWS V15.00,2014-10-01 04:26:00,
2014-10-01 00:30:00,77.8,76.6,29.86,NW,305,0.0,0.0,96,0.00,,---,0.00,VWS V15.00,2014-10-01 04:30:00,
2014-10-01 00:31:00,77.8,76.6,29.86,NW,305,0.0,0.0,96,0.00,,---,0.00,VWS V15.00,2014-10-01 04:31:00,
2014-10-01 00:35:00,77.8,76.6,29.86,NW,305,0.0,0.0,96,0.00,,---,0.00,VWS V15.00,2014-10-01 04:35:00,
2014-10-01 00:36:00,77.8,76.6,29.86,NW,305,0.0,0.0,96,0.00,,---,0.00,VWS V15.00,2014-10-01 04:36:00,
2014-10-01 00:37:00,77.8,76.6,29.86,NW,305,0.0,0.0,96,0.00,,---,0.00,VWS V15.00,2014-10-01 04:37:00,
2014-10-01 00:41:00,77.8,76.6,29.86,NW,305,0.0,0.0,96,0.00,,---,0.00,VWS V15.00,2014-10-01 04:41:00,
2014-10-01 00:42:00,77.8,76.6,29.86,NW,305,0.0,0.0,96,0.00,,---,0.00,VWS V15.00,2014-10-01 04:42:00,
2014-10-01 00:43:00,77.8,76.6,29.86,NW,305,0.0,0.0,96,0.00,,---,0.00,VWS V15.00,2014-10-01 04:43:00,
2014-10-01 00:47:00,77.8,76.6,29.86,NW,305,0.0,0.0,96,0.00,,---,0.00,VWS V15.00,2014-10-01 04:47:00,
2014-10-01 00:48:00,77.9,76.7,29.86,NW,305,0.0,0.0,96,0.00,,---,0.00,VWS V15.00,2014-10-01 04:48:00,
2014-10-01 00:49:00,77.8,76.6,29.86,NW,305,0.0,0.0,96,0.00,,---,0.00,VWS V15.00,2014-10-01 04:49:00,
2014-10-01 00:51:00,77.9,76.7,29.86,NW,305,0.0,0.0,96,0.00,,---,0.00,VWS V15.00,2014-10-01 04:51:00,
2014-10-01 00:53:00,77.9,76.7,29.86,NW,305,0.0,0.0,96,0.00,,---,0.00,VWS V15.00,2014-10-01 04:53:00,
2014-10-01 00:54:00,77.9,76.7,29.86,NW,305,0.0,0.0,96,0.00,,---,0.00,VWS V15.00,2014-10-01 04:54:00,
2014-10-01 00:55:00,77.9,76.7,29.86,NW,305,0.0,0.0,96,0.00,,---,0.00,VWS V15.00,2014-10-01 04:55:00,
2014-10-01 00:58:00,77.9,76.7,29.86,NW,305,0.0,0.0,96,0.00,,---,0.00,VWS V15.00,2014-10-01 04:58:00,
2014-10-01 00:59:00,77.9,76.7,29.86,NW,305,0.0,0.0,96,0.00,,---,0.00,VWS V15.00,2014-10-01 04:59:00,
2014-10-01 01:01:00,78.0,77.1,29.86,NW,305,0.0,0.0,97,0.00,,---,0.00,VWS V15.00,2014-10-01 05:01:00,
2014-10-01 01:03:00,78.2,77.3,29.86,NW,305,1.0,1.0,97,0.00,,---,0.00,VWS V15.00,2014-10-01 05:03:00,
2014-10-01 01:04:00,78.2,77.3,29.86,NW,305,2.0,3.0,97,0.00,,---,0.00,VWS V15.00,2014-10-01 05:04:00,
2014-10-01 01:06:00,78.2,77.0,29.86,NW,305,0.0,3.0,96,0.00,,---,0.00,VWS V15.00,2014-10-01 05:06:00,
2014-10-01 01:10:00,78.0,76.8,29.86,NW,305,0.0,2.0,96,0.00,,---,0.00,VWS V15.00,2014-10-01 05:10:00,
2014-10-01 01:11:00,78.0,76.8,29.86,NW,305,0.0,2.0,96,0.00,,---,0.00,VWS V15.00,2014-10-01 05:11:00,
2014-10-01 01:14:00,78.2,77.0,29.86,NW,305,0.0,0.0,96,0.00,,---,0.00,VWS V15.00,2014-10-01 05:14:00,
2014-10-01 01:17:00,78.1,76.9,29.86,NW,305,0.0,1.0,96,0.00,,---,0.00,VWS V15.00,2014-10-01 05:17:00,
2014-10-01 01:18:00,78.1,76.9,29.86,NW,305,0.0,1.0,96,0.00,,---,0.00,VWS V15.00,2014-10-01 05:18:00,
2014-10-01 01:19:00,78.1,76.9,29.86,NW,305,0.0,0.0,96,0.00,,---,0.00,VWS V15.00,2014-10-01 05:19:00,
2014-10-01 01:23:00,78.0,76.8,29.86,NW,305,0.0,2.0,96,0.00,,---,0.00,VWS V15.00,2014-10-01 05:23:00,
2014-10-01 01:24:00,78.0,76.8,29.86,NW,305,0.0,0.0,96,0.00,,---,0.00,VWS V15.00,2014-10-01 05:24:00,
2014-10-01 01:28:00,78.0,76.8,29.86,NW,305,0.0,0.0,96,0.00,,---,0.00,VWS V15.00,2014-10-01 05:28:00,
2014-10-01 01:30:00,78.0,76.8,29.86,NW,305,0.0,0.0,96,0.00,,---,0.00,VWS V15.00,2014-10-01 05:30:00,
2014-10-01 01:33:00,78.0,76.8,29.86,NW,305,0.0,0.0,96,0.00,,---,0.00,VWS V15.00,2014-10-01 05:33:00,
2014-10-01 01:35:00,77.9,76.7,29.86,NW,305,0.0,0.0,96,0.00,,---,0.00,VWS V15.00,2014-10-01 05:35:00,
2014-10-01 01:36:00,77.9,76.7,29.86,NW,305,0.0,0.0,96,0.00,,---,0.00,VWS V15.00,2014-10-01 05:36:00,
2014-10-01 01:39:00,78.0,76.8,29.86,NW,305,0.0,0.0,96,0.00,,---,0.00,VWS V15.00,2014-10-01 05:39:00,
2014-10-01 01:41:00,78.0,76.8,29.86,NW,305,0.0,0.0,96,0.00,,---,0.00,VWS V15.00,2014-10-01 05:41:00,
2014-10-01 01:42:00,78.0,76.8,29.86,NW,305,0.0,0.0,96,0.00,,---,0.00,VWS V15.00,2014-10-01 05:42:00,
2014-10-01 01:46:00,78.1,76.9,29.86,NW,305,0.0,3.0,96,0.00,,---,0.00,VWS V15.00,2014-10-01 05:46:00,
2014-10-01 01:47:00,78.1,76.9,29.86,NW,305,0.0,3.0,96,0.00,,---,0.00,VWS V15.00,2014-10-01 05:47:00,
2014-10-01 01:48:00,78.1,76.9,29.86,NW,305,0.0,3.0,96,0.00,,---,0.00,VWS V15.00,2014-10-01 05:48:00,
2014-10-01 01:50:00,78.1,76.9,29.86,NW,305,0.0,0.0,96,0.00,,---,0.00,VWS V15.00,2014-10-01 05:50:00,
2014-10-01 01:51:00,78.0,76.8,29.86,NW,305,0.0,0.0,96,0.00,,---,0.00,VWS V15.00,2014-10-01 05:51:00,
2014-10-01 01:52:00,78.0,76.8,29.86,NW,305,0.0,0.0,96,0.00,,---,0.00,VWS V15.00,2014-10-01 05:52:00,
2014-10-01 01:54:00,78.0,76.8,29.86,NW,305,0.0,0.0,96,0.00,,---,0.00,VWS V15.00,2014-10-01 05:54:00,
2014-10-01 01:57:00,77.9,76.7,29.86,NW,305,0.0,0.0,96,0.00,,---,0.00,VWS V15.00,2014-10-01 05:57:00,
2014-10-01 01:58:00,77.9,76.7,29.86,NW,305,0.0,0.0,96,0.00,,---,0.00,VWS V15.00,2014-10-01 05:58:00,
2014-10-01 01:59:00,77.9,76.7,29.85,NW,305,0.0,0.0,96,0.00,,---,0.00,VWS V15.00,2014-10-01 05:59:00,
2014-10-01 02:04:00,77.8,76.6,29.85,NW,305,0.0,0.0,96,0.00,,---,0.00,VWS V15.00,2014-10-01 06:04:00,
2014-10-01 02:06:00,77.8,76.6,29.85,NW,305,0.0,0.0,96,0.00,,---,0.00,VWS V15.00,2014-10-01 06:06:00,
2014-10-01 02:11:00,77.8,76.6,29.86,NW,305,0.0,0.0,96,0.00,,---,0.00,VWS V15.00,2014-10-01 06:11:00,
2014-10-01 02:13:00,77.8,76.6,29.85,NW,305,0.0,0.0,96,0.00,,---,0.00,VWS V15.00,2014-10-01 06:13:00,
2014-10-01 02:16:00,77.7,76.5,29.85,NW,305,0.0,0.0,96,0.00,,---,0.00,VWS V15.00,2014-10-01 06:16:00,
2014-10-01 02:18:00,77.6,76.4,29.85,NW,305,0.0,0.0,96,0.00,,---,0.00,VWS V15.00,2014-10-01 06:18:00,
2014-10-01 02:22:00,77.6,76.4,29.85,NW,305,0.0,0.0,96,0.00,,---,0.00,VWS V15.00,2014-10-01 06:22:00,
2014-10-01 02:23:00,77.6,76.4,29.85,NW,305,0.0,0.0,96,0.00,,---,0.00,VWS V15.00,2014-10-01 06:23:00,
2014-10-01 02:24:00,77.5,76.3,29.85,NW,305,0.0,0.0,96,0.00,,---,0.00,VWS V15.00,2014-10-01 06:24:00,
2014-10-01 02:29:00,77.5,76.3,29.85,NW,305,0.0,0.0,96,0.00,,---,0.00,VWS V15.00,2014-10-01 06:29:00,
2014-10-01 02:30:00,77.5,76.3,29.85,NW,305,0.0,0.0,96,0.00,,---,0.00,VWS V15.00,2014-10-01 06:30:00,
2014-10-01 02:31:00,77.5,76.3,29.85,NW,305,0.0,0.0,96,0.00,,---,0.00,VWS V15.00,2014-10-01 06:31:00,
2014-10-01 02:35:00,77.4,76.2,29.85,NW,305,0.0,0.0,96,0.00,,---,0.00,VWS V15.00,2014-10-01 06:35:00,
2014-10-01 02:36:00,77.4,76.2,29.85,NW,305,0.0,0.0,96,0.00,,---,0.00,VWS V15.00,2014-10-01 06:36:00,
2014-10-01 02:40:00,77.4,76.2,29.85,NW,305,0.0,0.0,96,0.00,,---,0.00,VWS V15.00,2014-10-01 06:40:00,
2014-10-01 02:41:00,77.4,76.2,29.85,NW,305,0.0,0.0,96,0.00,,---,0.00,VWS V15.00,2014-10-01 06:41:00,
2014-10-01 02:43:00,77.4,76.2,29.85,NW,305,0.0,0.0,96,0.00,,---,0.00,VWS V15.00,2014-10-01 06:43:00,
2014-10-01 02:46:00,77.3,76.1,29.85,NW,305,0.0,0.0,96,0.00,,---,0.00,VWS V15.00,2014-10-01 06:46:00,
2014-10-01 02:47:00,77.4,76.2,29.85,NW,305,0.0,0.0,96,0.00,,---,0.00,VWS V15.00,2014-10-01 06:47:00,
2014-10-01 02:48:00,77.3,76.1,29.85,NW,305,0.0,0.0,96,0.00,,---,0.00,VWS V15.00,2014-10-01 06:48:00,
2014-10-01 02:52:00,77.3,76.1,29.85,NW,305,0.0,0.0,96,0.00,,---,0.00,VWS V15.00,2014-10-01 06:52:00,
2014-10-01 02:53:00,77.3,76.1,29.85,NW,305,0.0,0.0,96,0.00,,---,0.00,VWS V15.00,2014-10-01 06:53:00,
2014-10-01 02:58:00,77.2,76.0,29.85,NW,305,0.0,0.0,96,0.00,,---,0.00,VWS V15.00,2014-10-01 06:58:00,
2014-10-01 02:59:00,77.2,76.0,29.85,NW,305,0.0,0.0,96,0.00,,---,0.00,VWS V15.00,2014-10-01 06:59:00,
2014-10-01 03:04:00,77.2,76.0,29.84,NW,305,0.0,0.0,96,0.00,,---,0.00,VWS V15.00,2014-10-01 07:04:00,
2014-10-01 03:06:00,77.2,76.0,29.84,NW,305,0.0,0.0,96,0.00,,---,0.00,VWS V15.00,2014-10-01 07:06:00,
2014-10-01 03:09:00,77.2,76.0,29.84,NW,305,0.0,0.0,96,0.00,,---,0.00,VWS V15.00,2014-10-01 07:09:00,
2014-10-01 03:13:00,77.2,76.3,29.84,NW,305,0.0,0.0,97,0.00,,---,0.00,VWS V15.00,2014-10-01 07:13:00,
2014-10-01 03:14:00,77.2,76.3,29.84,NW,305,0.0,0.0,97,0.00,,---,0.00,VWS V15.00,2014-10-01 07:14:00,
2014-10-01 03:15:00,77.2,76.3,29.84,NW,305,0.0,0.0,97,0.00,,---,0.00,VWS V15.00,2014-10-01 07:15:00,
2014-10-01 03:19:00,77.2,76.3,29.84,NW,305,0.0,0.0,97,0.00,,---,0.00,VWS V15.00,2014-10-01 07:19:00,
2014-10-01 03:20:00,77.2,76.3,29.84,NW,305,0.0,0.0,97,0.00,,---,0.00,VWS V15.00,2014-10-01 07:20:00,
2014-10-01 03:25:00,77.1,76.2,29.84,NW,305,0.0,0.0,97,0.00,,---,0.00,VWS V15.00,2014-10-01 07:25:00,
2014-10-01 03:30:00,77.1,76.2,29.84,NW,305,0.0,0.0,97,0.00,,---,0.00,VWS V15.00,2014-10-01 07:30:00,
2014-10-01 03:32:00,77.1,76.2,29.84,NW,305,0.0,0.0,97,0.00,,---,0.00,VWS V15.00,2014-10-01 07:32:00,
2014-10-01 03:35:00,77.1,76.2,29.84,NW,305,0.0,0.0,97,0.00,,---,0.00,VWS V15.00,2014-10-01 07:35:00,
2014-10-01 03:37:00,77.1,76.2,29.84,NW,305,0.0,0.0,97,0.00,,---,0.00,VWS V15.00,2014-10-01 07:37:00,
2014-10-01 03:40:00,77.0,76.1,29.84,NW,305,0.0,0.0,97,0.00,,---,0.00,VWS V15.00,2014-10-01 07:40:00,
2014-10-01 03:41:00,77.0,76.1,29.84,NW,305,0.0,0.0,97,0.00,,---,0.00,VWS V15.00,2014-10-01 07:41:00,
2014-10-01 03:42:00,77.0,76.1,29.84,NW,305,0.0,0.0,97,0.00,,---,0.00,VWS V15.00,2014-10-01 07:42:00,
2014-10-01 03:46:00,77.0,76.1,29.84,NW,305,0.0,0.0,97,0.00,,---,0.00,VWS V15.00,2014-10-01 07:46:00,
2014-10-01 03:47:00,77.0,76.1,29.84,NW,305,0.0,0.0,97,0.00,,---,0.00,VWS V15.00,2014-10-01 07:47:00,
2014-10-01 03:48:00,77.0,76.1,29.84,NW,305,0.0,0.0,97,0.00,,---,0.00,VWS V15.00,2014-10-01 07:48:00,
2014-10-01 03:49:00,76.9,76.0,29.84,NW,305,0.0,0.0,97,0.00,,---,0.00,VWS V15.00,2014-10-01 07:49:00,
2014-10-01 03:52:00,77.0,76.1,29.84,NW,305,0.0,0.0,97,0.00,,---,0.00,VWS V15.00,2014-10-01 07:52:00,
2014-10-01 03:53:00,77.0,76.1,29.84,NW,305,0.0,0.0,97,0.00,,---,0.00,VWS V15.00,2014-10-01 07:53:00,
2014-10-01 03:56:00,77.0,76.1,29.84,NW,305,0.0,0.0,97,0.00,,---,0.00,VWS V15.00,2014-10-01 07:56:00,
2014-10-01 03:58:00,77.0,76.1,29.84,NW,305,0.0,0.0,97,0.00,,---,0.00,VWS V15.00,2014-10-01 07:58:00,
2014-10-01 04:01:00,77.0,76.1,29.84,NW,305,0.0,0.0,97,0.00,,---,0.00,VWS V15.00,2014-10-01 08:01:00,
2014-10-01 04:06:00,77.0,76.1,29.84,NW,305,0.0,0.0,97,0.00,,---,0.00,VWS V15.00,2014-10-01 08:06:00,
2014-10-01 04:08:00,77.1,76.2,29.84,NW,305,0.0,0.0,97,0.00,,---,0.00,VWS V15.00,2014-10-01 08:08:00,
2014-10-01 04:13:00,77.0,76.1,29.84,NW,305,0.0,0.0,97,0.00,,---,0.00,VWS V15.00,2014-10-01 08:13:00,
2014-10-01 04:14:00,77.0,76.1,29.84,NW,305,0.0,0.0,97,0.00,,---,0.00,VWS V15.00,2014-10-01 08:14:00,
2014-10-01 04:18:00,77.0,76.1,29.84,NW,305,0.0,0.0,97,0.00,,---,0.00,VWS V15.00,2014-10-01 08:18:00,
2014-10-01 04:19:00,77.0,76.1,29.84,NW,305,0.0,0.0,97,0.00,,---,0.00,VWS V15.00,2014-10-01 08:19:00,
2014-10-01 04:20:00,77.0,76.1,29.84,NW,305,0.0,0.0,97,0.00,,---,0.00,VWS V15.00,2014-10-01 08:20:00,
2014-10-01 04:23:00,77.0,76.1,29.84,NW,305,0.0,0.0,97,0.00,,---,0.00,VWS V15.00,2014-10-01 08:23:00,
2014-10-01 04:24:00,77.0,76.1,29.84,NW,305,0.0,0.0,97,0.00,,---,0.00,VWS V15.00,2014-10-01 08:24:00,
2014-10-01 04:26:00,77.0,76.1,29.84,NW,305,0.0,0.0,97,0.00,,---,0.00,VWS V15.00,2014-10-01 08:26:00,
2014-10-01 04:29:00,77.0,76.1,29.84,NW,305,0.0,0.0,97,0.00,,---,0.00,VWS V15.00,2014-10-01 08:29:00,
2014-10-01 04:32:00,77.0,76.1,29.84,NW,305,0.0,0.0,97,0.00,,---,0.00,VWS V15.00,2014-10-01 08:32:00,
2014-10-01 04:33:00,77.0,76.1,29.84,NW,305,0.0,0.0,97,0.00,,---,0.00,VWS V15.00,2014-10-01 08:33:00,
2014-10-01 04:35:00,77.0,76.1,29.84,NW,305,0.0,0.0,97,0.00,,---,0.00,VWS V15.00,2014-10-01 08:35:00,
2014-10-01 04:37:00,77.0,76.1,29.84,NW,305,0.0,0.0,97,0.00,,---,0.00,VWS V15.00,2014-10-01 08:37:00,
2014-10-01 04:38:00,77.0,76.1,29.85,NW,305,0.0,0.0,97,0.00,,---,0.00,VWS V15.00,2014-10-01 08:38:00,
2014-10-01 04:41:00,77.0,76.1,29.85,NW,305,0.0,0.0,97,0.00,,---,0.00,VWS V15.00,2014-10-01 08:41:00,
2014-10-01 04:42:00,77.1,76.2,29.85,NW,305,0.0,1.0,97,0.00,,---,0.00,VWS V15.00,2014-10-01 08:42:00,
2014-10-01 04:44:00,77.3,76.4,29.85,NW,305,0.0,0.0,97,0.00,,---,0.00,VWS V15.00,2014-10-01 08:44:00,
2014-10-01 04:46:00,77.3,76.4,29.85,NW,305,0.0,0.0,97,0.00,,---,0.00,VWS V15.00,2014-10-01 08:46:00,
2014-10-01 04:47:00,77.3,76.4,29.85,NW,305,0.0,0.0,97,0.00,,---,0.00,VWS V15.00,2014-10-01 08:47:00,
2014-10-01 04:51:00,77.3,76.4,29.85,NW,305,0.0,0.0,97,0.00,,---,0.00,VWS V15.00,2014-10-01 08:51:00,
2014-10-01 04:53:00,77.3,76.4,29.85,NW,305,0.0,0.0,97,0.00,,---,0.00,VWS V15.00,2014-10-01 08:53:00,
2014-10-01 04:56:00,77.4,76.5,29.85,NW,305,0.0,0.0,97,0.00,,---,0.00,VWS V15.00,2014-10-01 08:56:00,
2014-10-01 04:58:00,77.4,76.5,29.85,NW,305,0.0,0.0,97,0.00,,---,0.00,VWS V15.00,2014-10-01 08:58:00,
2014-10-01 04:59:00,77.5,76.6,29.85,NW,305,0.0,0.0,97,0.00,,---,0.00,VWS V15.00,2014-10-01 08:59:00,
2014-10-01 05:01:00,77.6,76.7,29.85,NW,305,0.0,0.0,97,0.00,,---,0.00,VWS V15.00,2014-10-01 09:01:00,
2014-10-01 05:03:00,77.7,77.1,29.85,NW,305,0.0,0.0,98,0.00,,---,0.00,VWS V15.00,2014-10-01 09:03:00,
2014-10-01 05:07:00,78.1,77.5,29.85,NW,305,0.0,4.0,98,0.00,,---,0.00,VWS V15.00,2014-10-01 09:07:00,
2014-10-01 05:08:00,78.2,77.6,29.85,NW,305,0.0,4.0,98,0.00,,---,0.00,VWS V15.00,2014-10-01 09:08:00,
2014-10-01 05:13:00,78.6,78.0,29.85,NW,305,1.0,3.0,98,0.00,,---,0.00,VWS V15.00,2014-10-01 09:13:00,
2014-10-01 05:14:00,78.6,78.0,29.85,NW,305,0.0,1.0,98,0.00,,---,0.00,VWS V15.00,2014-10-01 09:14:00,
2014-10-01 05:17:00,78.6,77.7,29.85,NW,305,0.0,1.0,97,0.00,,---,0.00,VWS V15.00,2014-10-01 09:17:00,
2014-10-01 05:19:00,78.5,77.6,29.85,NW,305,0.0,0.0,97,0.00,,---,0.00,VWS V15.00,2014-10-01 09:19:00,
2014-10-01 05:21:00,78.5,77.6,29.85,NW,305,0.0,0.0,97,0.00,,---,0.00,VWS V15.00,2014-10-01 09:21:00,
2014-10-01 05:22:00,78.5,77.6,29.85,NW,305,0.0,0.0,97,0.00,,---,0.00,VWS V15.00,2014-10-01 09:22:00,
2014-10-01 05:27:00,78.3,77.4,29.85,NW,305,0.0,0.0,97,0.00,,---,0.00,VWS V15.00,2014-10-01 09:27:00,
2014-10-01 05:31:00,78.2,77.3,29.86,NW,305,0.0,0.0,97,0.00,,---,0.00,VWS V15.00,2014-10-01 09:31:00,
2014-10-01 05:33:00,78.2,77.3,29.86,NW,305,0.0,0.0,97,0.00,,---,0.00,VWS V15.00,2014-10-01 09:33:00,
2014-10-01 05:38:00,78.2,77.3,29.86,NW,305,0.0,0.0,97,0.00,,---,0.00,VWS V15.00,2014-10-01 09:38:00,
2014-10-01 05:41:00,78.2,77.3,29.86,NW,305,0.0,0.0,97,0.00,,---,0.00,VWS V15.00,2014-10-01 09:41:00,
2014-10-01 05:43:00,78.2,77.3,29.86,NW,305,0.0,0.0,97,0.00,,---,0.00,VWS V15.00,2014-10-01 09:43:00,
2014-10-01 05:46:00,78.2,77.3,29.86,NW,305,0.0,0.0,97,0.00,,---,0.00,VWS V15.00,2014-10-01 09:46:00,
2014-10-01 05:47:00,78.2,77.3,29.86,NW,305,0.0,0.0,97,0.00,,---,0.00,VWS V15.00,2014-10-01 09:47:00,
2014-10-01 05:49:00,78.1,77.2,29.86,NW,305,0.0,0.0,97,0.00,,---,0.00,VWS V15.00,2014-10-01 09:49:00,
2014-10-01 05:52:00,78.1,77.2,29.86,NW,305,0.0,0.0,97,0.00,,---,0.00,VWS V15.00,2014-10-01 09:52:00,
2014-10-01 05:55:00,78.0,77.1,29.86,NW,305,0.0,0.0,97,0.00,,---,0.00,VWS V15.00,2014-10-01 09:55:00,
2014-10-01 05:56:00,78.0,77.1,29.86,NW,305,0.0,0.0,97,0.00,,---,0.00,VWS V15.00,2014-10-01 09:56:00,
2014-10-01 05:58:00,78.0,76.8,29.86,NW,305,0.0,0.0,96,0.00,,---,0.00,VWS V15.00,2014-10-01 09:58:00,
2014-10-01 06:01:00,78.0,77.1,29.86,NW,305,0.0,0.0,97,0.00,,---,0.00,VWS V15.00,2014-10-01 10:01:00,
2014-10-01 06:03:00,77.9,77.0,29.86,NW,305,0.0,0.0,97,0.00,,---,0.00,VWS V15.00,2014-10-01 10:03:00,
2014-10-01 06:04:00,78.0,77.1,29.87,NW,305,0.0,0.0,97,0.00,,---,0.00,VWS V15.00,2014-10-01 10:04:00,
2014-10-01 06:09:00,77.9,77.0,29.87,NW,305,0.0,0.0,97,0.00,,---,0.00,VWS V15.00,2014-10-01 10:09:00,
2014-10-01 06:14:00,77.9,76.7,29.87,NW,305,0.0,0.0,96,0.00,,---,0.00,VWS V15.00,2014-10-01 10:14:00,
2014-10-01 06:15:00,77.9,76.7,29.87,NW,305,0.0,0.0,96,0.00,,---,0.00,VWS V15.00,2014-10-01 10:15:00,
2014-10-01 06:20:00,77.9,77.0,29.87,NW,305,0.0,0.0,97,0.00,,---,0.00,VWS V15.00,2014-10-01 10:20:00,
2014-10-01 06:21:00,77.9,77.0,29.87,NW,305,0.0,0.0,97,0.00,,---,0.00,VWS V15.00,2014-10-01 10:21:00,
2014-10-01 06:26:00,77.8,76.9,29.88,NW,305,0.0,0.0,97,0.00,,---,0.00,VWS V15.00,2014-10-01 10:26:00,
2014-10-01 06:27:00,77.8,76.9,29.88,NW,305,0.0,0.0,97,0.00,,---,0.00,VWS V15.00,2014-10-01 10:27:00,
2014-10-01 06:32:00,77.8,76.9,29.88,NW,305,0.0,0.0,97,0.00,,---,0.00,VWS V15.00,2014-10-01 10:32:00,
2014-10-01 06:34:00,77.9,77.0,29.88,NW,305,0.0,0.0,97,0.00,,---,0.00,VWS V15.00,2014-10-01 10:34:00,
2014-10-01 06:38:00,77.8,76.9,29.88,NW,305,0.0,0.0,97,0.00,,---,0.00,VWS V15.00,2014-10-01 10:38:00,
2014-10-01 06:43:00,77.8,76.9,29.88,NW,305,0.0,0.0,97,0.00,,---,0.00,VWS V15.00,2014-10-01 10:43:00,
2014-10-01 06:45:00,77.8,76.9,29.88,NW,305,0.0,0.0,97,0.00,,---,0.00,VWS V15.00,2014-10-01 10:45:00,
2014-10-01 06:46:00,77.7,76.8,29.88,NW,305,0.0,0.0,97,0.00,,---,0.00,VWS V15.00,2014-10-01 10:46:00,
2014-10-01 06:50:00,77.7,76.8,29.88,NW,305,0.0,0.0,97,0.00,,---,0.00,VWS V15.00,2014-10-01 10:50:00,
2014-10-01 06:51:00,77.7,76.8,29.88,NW,305,0.0,0.0,97,0.00,,---,0.00,VWS V15.00,2014-10-01 10:51:00,
2014-10-01 06:52:00,77.7,76.8,29.88,NW,305,0.0,0.0,97,0.00,,---,0.00,VWS V15.00,2014-10-01 10:52:00,
2014-10-01 06:55:00,77.6,76.7,29.88,NW,305,0.0,0.0,97,0.00,,---,0.00,VWS V15.00,2014-10-01 10:55:00,
2014-10-01 06:58:00,77.5,76.6,29.88,NW,305,0.0,0.0,97,0.00,,---,0.00,VWS V15.00,2014-10-01 10:58:00,
2014-10-01 07:01:00,77.4,76.5,29.88,NW,305,0.0,0.0,97,0.00,,---,0.00,VWS V15.00,2014-10-01 11:01:00,
2014-10-01 07:04:00,77.3,76.4,29.88,NW,305,0.0,0.0,97,0.00,,---,0.00,VWS V15.00,2014-10-01 11:04:00,
2014-10-01 07:08:00,77.3,76.4,29.88,NW,305,0.0,0.0,97,0.00,,---,0.00,VWS V15.00,2014-10-01 11:08:00,
2014-10-01 07:09:00,77.3,76.4,29.88,NW,305,0.0,0.0,97,0.00,,---,0.00,VWS V15.00,2014-10-01 11:09:00,
2014-10-01 07:11:00,77.3,76.4,29.88,NW,305,0.0,0.0,97,0.00,,---,0.00,VWS V15.00,2014-10-01 11:11:00,
2014-10-01 07:13:00,77.2,76.3,29.88,NW,305,0.0,0.0,97,0.00,,---,0.00,VWS V15.00,2014-10-01 11:13:00,
2014-10-01 07:15:00,77.2,76.3,29.88,NW,305,0.0,0.0,97,0.00,,---,0.00,VWS V15.00,2014-10-01 11:15:00,
2014-10-01 07:17:00,77.2,76.3,29.89,NW,305,0.0,0.0,97,0.00,,---,0.00,VWS V15.00,2014-10-01 11:17:00,
2014-10-01 07:18:00,77.2,76.3,29.89,NW,305,0.0,0.0,97,0.00,,---,0.00,VWS V15.00,2014-10-01 11:18:00,
2014-10-01 07:21:00,77.2,76.3,29.89,NW,305,0.0,0.0,97,0.00,,---,0.00,VWS V15.00,2014-10-01 11:21:00,
2014-10-01 07:22:00,77.1,76.2,29.89,NW,305,0.0,0.0,97,0.00,,---,0.00,VWS V15.00,2014-10-01 11:22:00,
2014-10-01 07:24:00,77.2,76.3,29.89,NW,305,0.0,0.0,97,0.00,,---,0.00,VWS V15.00,2014-10-01 11:24:00,
2014-10-01 07:28:00,77.3,76.4,29.89,NW,305,0.0,0.0,97,0.00,,---,0.00,VWS V15.00,2014-10-01 11:28:00,
2014-10-01 07:29:00,77.3,76.4,29.89,NW,305,0.0,0.0,97,0.00,,---,0.00,VWS V15.00,2014-10-01 11:29:00,
2014-10-01 07:32:00,77.4,76.5,29.89,NW,305,0.0,0.0,97,0.00,,---,0.00,VWS V15.00,2014-10-01 11:32:00,
2014-10-01 07:35:00,77.4,76.5,29.89,NW,305,0.0,0.0,97,0.00,,---,0.00,VWS V15.00,2014-10-01 11:35:00,
2014-10-01 07:36:00,77.4,76.5,29.89,NW,305,0.0,0.0,97,0.00,,---,0.00,VWS V15.00,2014-10-01 11:36:00,
2014-10-01 07:37:00,77.4,76.5,29.89,NW,305,0.0,0.0,97,0.00,,---,0.00,VWS V15.00,2014-10-01 11:37:00,
2014-10-01 07:41:00,77.5,76.6,29.89,NW,305,0.0,0.0,97,0.00,,---,0.00,VWS V15.00,2014-10-01 11:41:00,
2014-10-01 07:42:00,77.5,76.6,29.89,NW,305,0.0,0.0,97,0.00,,---,0.00,VWS V15.00,2014-10-01 11:42:00,
2014-10-01 07:43:00,77.5,76.6,29.89,NW,305,0.0,0.0,97,0.00,,---,0.00,VWS V15.00,2014-10-01 11:43:00,
2014-10-01 07:46:00,77.5,76.6,29.90,NW,305,0.0,0.0,97,0.00,,---,0.00,VWS V15.00,2014-10-01 11:46:00,
2014-10-01 07:47:00,77.5,76.6,29.90,NW,305,0.0,0.0,97,0.00,,---,0.00,VWS V15.00,2014-10-01 11:47:00,
2014-10-01 07:51:00,77.6,76.7,29.90,NW,305,0.0,0.0,97,0.00,,---,0.00,VWS V15.00,2014-10-01 11:51:00,
2014-10-01 07:52:00,77.5,76.6,29.90,NW,305,0.0,0.0,97,0.00,,---,0.00,VWS V15.00,2014-10-01 11:52:00,
2014-10-01 07:55:00,77.5,76.6,29.90,NW,305,0.0,0.0,97,0.00,,---,0.00,VWS V15.00,2014-10-01 11:55:00,
2014-10-01 07:56:00,77.5,76.6,29.90,NW,305,0.0,0.0,97,0.00,,---,0.00,VWS V15.00,2014-10-01 11:56:00,
2014-10-01 07:57:00,77.5,76.6,29.90,NW,305,0.0,0.0,97,0.00,,---,0.00,VWS V15.00,2014-10-01 11:57:00,
2014-10-01 08:01:00,77.6,76.7,29.90,NW,305,0.0,0.0,97,0.00,,---,0.00,VWS V15.00,2014-10-01 12:01:00,
2014-10-01 08:03:00,77.6,76.7,29.90,NW,305,0.0,0.0,97,0.00,,---,0.00,VWS V15.00,2014-10-01 12:03:00,
2014-10-01 08:05:00,77.6,76.7,29.90,NW,305,0.0,0.0,97,0.00,,---,0.00,VWS V15.00,2014-10-01 12:05:00,
2014-10-01 08:08:00,77.7,76.8,29.90,NW,305,0.0,0.0,97,0.00,,---,0.00,VWS V15.00,2014-10-01 12:08:00,
2014-10-01 08:10:00,77.7,76.8,29.90,NW,305,0.0,0.0,97,0.00,,---,0.00,VWS V15.00,2014-10-01 12:10:00,
2014-10-01 08:12:00,77.8,76.9,29.90,NW,305,0.0,0.0,97,0.00,,---,0.00,VWS V15.00,2014-10-01 12:12:00,
2014-10-01 08:16:00,78.1,77.5,29.90,NW,305,0.0,0.0,98,0.00,,---,0.00,VWS V15.00,2014-10-01 12:16:00,
2014-10-01 08:17:00,78.2,77.6,29.90,NW,305,0.0,0.0,98,0.00,,---,0.00,VWS V15.00,2014-10-01 12:17:00,
2014-10-01 08:18:00,78.3,77.7,29.90,NW,305,0.0,0.0,98,0.00,,---,0.00,VWS V15.00,2014-10-01 12:18:00,
2014-10-01 08:21:00,78.4,77.5,29.91,NW,305,0.0,0.0,97,0.00,,---,0.00,VWS V15.00,2014-10-01 12:21:00,
2014-10-01 08:22:00,78.4,77.5,29.91,NW,305,0.0,0.0,97,0.00,,---,0.00,VWS V15.00,2014-10-01 12:22:00,
2014-10-01 08:23:00,78.5,77.6,29.91,NW,305,0.0,0.0,97,0.00,,---,0.00,VWS V15.00,2014-10-01 12:23:00,
2014-10-01 08:27:00,78.6,77.7,29.91,NW,305,0.0,0.0,97,0.00,,---,0.00,VWS V15.00,2014-10-01 12:27:00,
2014-10-01 08:28:00,78.7,77.8,29.91,NW,305,0.0,0.0,97,0.00,,---,0.00,VWS V15.00,2014-10-01 12:28:00,
2014-10-01 08:30:00,78.7,77.8,29.91,NW,305,0.0,0.0,97,0.00,,---,0.00,VWS V15.00,2014-10-01 12:30:00,
2014-10-01 08:33:00,78.7,77.8,29.91,NW,305,0.0,0.0,97,0.00,,---,0.00,VWS V15.00,2014-10-01 12:33:00,
2014-10-01 08:36:00,78.7,77.8,29.91,NW,305,0.0,0.0,97,0.00,,---,0.00,VWS V15.00,2014-10-01 12:36:00,
2014-10-01 08:38:00,78.7,77.8,29.91,NW,305,0.0,0.0,97,0.00,,---,0.00,VWS V15.00,2014-10-01 12:38:00,
2014-10-01 08:39:00,78.8,77.9,29.91,NW,305,0.0,0.0,97,0.00,,---,0.00,VWS V15.00,2014-10-01 12:39:00,
2014-10-01 08:43:00,78.9,78.0,29.91,NW,305,0.0,2.0,97,0.00,,---,0.00,VWS V15.00,2014-10-01 12:43:00,
2014-10-01 08:44:00,79.0,78.1,29.91,NW,305,2.0,2.0,97,0.00,,---,0.00,VWS V15.00,2014-10-01 12:44:00,
2014-10-01 08:45:00,79.0,78.1,29.91,NW,305,0.0,2.0,97,0.00,,---,0.00,VWS V15.00,2014-10-01 12:45:00,
2014-10-01 08:50:00,79.3,78.1,29.92,NW,305,4.0,4.0,96,0.00,,---,0.00,VWS V15.00,2014-10-01 12:50:00,
2014-10-01 08:55:00,79.7,77.8,29.92,NW,305,0.0,2.0,94,0.00,,---,0.00,VWS V15.00,2014-10-01 12:55:00,
2014-10-01 08:56:00,79.7,77.8,29.92,NW,305,4.0,4.0,94,0.00,,---,0.00,VWS V15.00,2014-10-01 12:56:00,
2014-10-01 09:01:00,80.2,78.0,29.92,NW,305,1.0,3.0,93,0.00,,---,0.00,VWS V15.00,2014-10-01 13:01:00,
2014-10-01 09:03:00,80.3,78.1,29.92,NW,305,0.0,3.0,93,0.00,,---,0.00,VWS V15.00,2014-10-01 13:03:00,
2014-10-01 09:05:00,80.5,78.3,29.92,NW,305,1.0,3.0,93,0.00,,---,0.00,VWS V15.00,2014-10-01 13:05:00,
2014-10-01 09:07:00,80.6,78.1,29.92,NW,305,1.0,3.0,92,0.00,,---,0.00,VWS V15.00,2014-10-01 13:07:00,
2014-10-01 09:10:00,80.8,77.9,29.92,NW,305,4.0,4.0,91,0.00,,---,0.00,VWS V15.00,2014-10-01 13:10:00,
2014-10-01 09:12:00,80.8,77.9,29.92,NW,305,2.0,4.0,91,0.00,,---,0.00,VWS V15.00,2014-10-01 13:12:00,
2014-10-01 09:15:00,81.0,77.8,29.92,NW,305,2.0,5.0,90,0.00,,---,0.00,VWS V15.00,2014-10-01 13:15:00,
2014-10-01 09:18:00,81.2,78.0,29.92,NW,305,5.0,6.0,90,0.00,,---,0.00,VWS V15.00,2014-10-01 13:18:00,
2014-10-01 09:20:00,81.3,78.1,29.92,NW,305,1.0,6.0,90,0.00,,---,0.00,VWS V15.00,2014-10-01 13:20:00,
2014-10-01 09:24:00,81.4,77.8,29.92,NW,305,0.0,3.0,89,0.00,,---,0.00,VWS V15.00,2014-10-01 13:24:00,
2014-10-01 09:26:00,81.6,78.1,29.92,NW,305,0.0,4.0,89,0.00,,---,0.00,VWS V15.00,2014-10-01 13:26:00,
2014-10-01 09:30:00,81.8,78.2,29.92,NW,305,2.0,2.0,89,0.00,,---,0.00,VWS V15.00,2014-10-01 13:30:00,
2014-10-01 09:31:00,81.8,78.2,29.92,NW,305,3.0,4.0,89,0.00,,---,0.00,VWS V15.00,2014-10-01 13:31:00,
2014-10-01 09:33:00,81.9,78.3,29.92,NW,305,0.0,4.0,89,0.00,,---,0.00,VWS V15.00,2014-10-01 13:33:00,
2014-10-01 09:36:00,82.0,78.1,29.93,NW,305,3.0,5.0,88,0.00,,---,0.00,VWS V15.00,2014-10-01 13:36:00,
2014-10-01 09:38:00,82.1,78.2,29.92,NW,305,4.0,5.0,88,0.00,,---,0.00,VWS V15.00,2014-10-01 13:38:00,
2014-10-01 09:41:00,82.2,78.3,29.93,NW,305,0.0,4.0,88,0.00,,---,0.00,VWS V15.00,2014-10-01 13:41:00,
2014-10-01 09:43:00,82.3,78.4,29.93,NW,305,3.0,5.0,88,0.00,,---,0.00,VWS V15.00,2014-10-01 13:43:00,
2014-10-01 09:45:00,82.4,78.1,29.93,NW,305,2.0,3.0,87,0.00,,---,0.00,VWS V15.00,2014-10-01 13:45:00,
2014-10-01 09:46:00,82.4,78.1,29.93,NW,305,0.0,3.0,87,0.00,,---,0.00,VWS V15.00,2014-10-01 13:46:00,
2014-10-01 09:48:00,82.4,77.8,29.93,NW,305,3.0,5.0,86,0.00,,---,0.00,VWS V15.00,2014-10-01 13:48:00,
2014-10-01 09:51:00,82.5,77.9,29.93,NW,305,3.0,5.0,86,0.00,,---,0.00,VWS V15.00,2014-10-01 13:51:00,
2014-10-01 09:53:00,82.5,78.2,29.93,NW,305,2.0,5.0,87,0.00,,---,0.00,VWS V15.00,2014-10-01 13:53:00,
2014-10-01 09:54:00,82.6,78.3,29.93,NW,305,2.0,2.0,87,0.00,,---,0.00,VWS V15.00,2014-10-01 13:54:00,
2014-10-01 09:57:00,82.6,78.3,29.93,NW,305,1.0,5.0,87,0.00,,---,0.00,VWS V15.00,2014-10-01 13:57:00,
2014-10-01 09:58:00,82.6,78.0,29.93,NW,305,1.0,5.0,86,0.00,,---,0.00,VWS V15.00,2014-10-01 13:58:00,
2014-10-01 09:59:00,82.5,77.9,29.93,NW,305,1.0,2.0,86,0.00,,---,0.00,VWS V15.00,2014-10-01 13:59:00,
2014-10-01 10:04:00,82.7,78.1,29.93,NW,305,1.0,4.0,86,0.00,,---,0.00,VWS V15.00,2014-10-01 14:04:00,
2014-10-01 10:05:00,82.7,78.4,29.93,NW,305,3.0,5.0,87,0.00,,---,0.00,VWS V15.00,2014-10-01 14:05:00,
2014-10-01 10:07:00,82.8,78.5,29.93,NW,305,4.0,5.0,87,0.00,,---,0.00,VWS V15.00,2014-10-01 14:07:00,
2014-10-01 10:10:00,82.8,78.5,29.93,NW,305,2.0,2.0,87,0.00,,---,0.00,VWS V15.00,2014-10-01 14:10:00,
2014-10-01 10:11:00,82.8,78.5,29.93,NW,305,0.0,4.0,87,0.00,,---,0.00,VWS V15.00,2014-10-01 14:11:00,
2014-10-01 10:12:00,82.9,78.6,29.93,NW,305,0.0,4.0,87,0.00,,---,0.00,VWS V15.00,2014-10-01 14:12:00,
2014-10-01 10:16:00,83.0,78.7,29.93,NW,305,2.0,8.0,87,0.00,,---,0.00,VWS V15.00,2014-10-01 14:16:00,
2014-10-01 10:17:00,83.1,78.8,29.93,NW,305,5.0,8.0,87,0.00,,---,0.00,VWS V15.00,2014-10-01 14:17:00,
2014-10-01 10:18:00,83.1,78.5,29.93,NW,305,2.0,8.0,86,0.00,,---,0.00,VWS V15.00,2014-10-01 14:18:00,
2014-10-01 10:22:00,83.2,78.6,29.93,NW,305,4.0,6.0,86,0.00,,---,0.00,VWS V15.00,2014-10-01 14:22:00,
2014-10-01 10:24:00,83.4,78.4,29.93,NW,305,3.0,4.0,85,0.00,,---,0.00,VWS V15.00,2014-10-01 14:24:00,
2014-10-01 10:27:00,83.7,79.1,29.93,NW,305,4.0,5.0,86,0.00,,---,0.00,VWS V15.00,2014-10-01 14:27:00,
2014-10-01 10:28:00,83.8,79.2,29.93,NW,305,2.0,5.0,86,0.00,,---,0.00,VWS V15.00,2014-10-01 14:28:00,
2014-10-01 10:30:00,83.9,78.9,29.93,NW,305,1.0,3.0,85,0.00,,---,0.00,VWS V15.00,2014-10-01 14:30:00,
2014-10-01 10:33:00,84.1,78.8,29.93,NW,305,5.0,5.0,84,0.00,,---,0.00,VWS V15.00,2014-10-01 14:33:00,
2014-10-01 10:35:00,84.1,78.4,29.94,NW,305,1.0,6.0,83,0.00,,---,0.00,VWS V15.00,2014-10-01 14:35:00,
2014-10-01 10:39:00,84.3,78.6,29.93,NW,305,4.0,5.0,83,0.00,,---,0.00,VWS V15.00,2014-10-01 14:39:00,
2014-10-01 10:44:00,84.3,77.8,29.94,NW,305,3.0,4.0,81,0.00,,---,0.00,VWS V15.00,2014-10-01 14:44:00,
2014-10-01 10:45:00,84.3,78.2,29.94,NW,305,2.0,4.0,82,0.00,,---,0.00,VWS V15.00,2014-10-01 14:45:00,
2014-10-01 10:48:00,84.3,78.2,29.94,NW,305,1.0,7.0,82,0.00,,---,0.00,VWS V15.00,2014-10-01 14:48:00,
2014-10-01 10:50:00,84.2,78.5,29.94,NW,305,3.0,7.0,83,0.00,,---,0.00,VWS V15.00,2014-10-01 14:50:00,
2014-10-01 10:53:00,84.3,77.8,29.94,NW,305,4.0,7.0,81,0.00,,---,0.00,VWS V15.00,2014-10-01 14:53:00,
2014-10-01 10:55:00,84.5,77.7,29.94,NW,305,6.0,8.0,80,0.00,,---,0.00,VWS V15.00,2014-10-01 14:55:00,
2014-10-01 10:58:00,84.5,77.3,29.94,NW,305,6.0,9.0,79,0.00,,---,0.00,VWS V15.00,2014-10-01 14:58:00,
2014-10-01 10:59:00,84.5,77.7,29.94,NW,305,6.0,6.0,80,0.00,,---,0.00,VWS V15.00,2014-10-01 14:59:00,
2014-10-01 11:03:00,84.7,79.0,29.94,NW,305,0.0,6.0,83,0.00,,---,0.00,VWS V15.00,2014-10-01 15:03:00,
2014-10-01 11:04:00,84.8,79.4,29.94,NW,305,6.0,6.0,84,0.00,,---,0.00,VWS V15.00,2014-10-01 15:04:00,
2014-10-01 11:05:00,85.0,79.3,29.95,WNW,286,4.0,8.0,83,0.00,,---,0.00,VWS V15.00,2014-10-01 15:05:00,
2014-10-01 11:09:00,83.5,76.7,29.95,WNW,290,8.0,9.0,80,0.01,,---,0.01,VWS V15.00,2014-10-01 15:09:00,
2014-10-01 11:11:00,82.6,76.2,29.95,WNW,297,5.0,9.0,81,0.01,,---,0.01,VWS V15.00,2014-10-01 15:11:00,
2014-10-01 11:14:00,81.6,76.7,29.95,SW,226,3.0,6.0,85,0.02,,---,0.02,VWS V15.00,2014-10-01 15:14:00,
2014-10-01 11:16:00,81.4,76.8,29.94,SW,226,4.0,6.0,86,0.02,,---,0.02,VWS V15.00,2014-10-01 15:16:00,
2014-10-01 11:20:00,81.2,77.0,29.94,SW,225,1.0,2.0,87,0.02,,---,0.02,VWS V15.00,2014-10-01 15:20:00,
2014-10-01 11:21:00,81.2,77.0,29.94,SW,225,0.0,2.0,87,0.02,,---,0.02,VWS V15.00,2014-10-01 15:21:00,
2014-10-01 11:23:00,81.3,77.4,29.94,SW,225,0.0,2.0,88,0.02,,---,0.02,VWS V15.00,2014-10-01 15:23:00,
2014-10-01 11:25:00,81.5,77.6,29.94,SW,225,0.0,4.0,88,0.02,,---,0.02,VWS V15.00,2014-10-01 15:25:00,
2014-10-01 11:26:00,81.5,77.6,29.94,SW,225,0.0,4.0,88,0.02,,---,0.02,VWS V15.00,2014-10-01 15:26:00,
2014-10-01 11:31:00,82.1,78.2,29.95,SW,225,3.0,5.0,88,0.02,,---,0.02,VWS V15.00,2014-10-01 15:31:00,
2014-10-01 11:32:00,82.2,77.9,29.94,WNW,287,1.0,6.0,87,0.02,,---,0.02,VWS V15.00,2014-10-01 15:32:00,
2014-10-01 11:37:00,82.5,78.2,29.94,WNW,289,0.0,5.0,87,0.02,,---,0.02,VWS V15.00,2014-10-01 15:37:00,
2014-10-01 11:39:00,82.6,78.3,29.94,WNW,289,0.0,1.0,87,0.02,,---,0.02,VWS V15.00,2014-10-01 15:39:00,
2014-10-01 11:40:00,82.7,78.8,29.94,WNW,289,1.0,3.0,88,0.02,,---,0.02,VWS V15.00,2014-10-01 15:40:00,
2014-10-01 11:42:00,83.0,79.1,29.94,WNW,289,0.0,3.0,88,0.02,,---,0.02,VWS V15.00,2014-10-01 15:42:00,
2014-10-01 11:45:00,83.2,78.2,29.94,West,278,2.0,9.0,85,0.02,,---,0.02,VWS V15.00,2014-10-01 15:45:00,
2014-10-01 11:47:00,83.5,78.2,29.94,West,281,5.0,9.0,84,0.02,,---,0.02,VWS V15.00,2014-10-01 15:47:00,
2014-10-01 11:48:00,83.6,77.9,29.94,WNW,290,7.0,9.0,83,0.02,,---,0.02,VWS V15.00,2014-10-01 15:48:00,
2014-10-01 11:50:00,83.8,78.4,29.94,West,281,6.0,9.0,84,0.02,,---,0.02,VWS V15.00,2014-10-01 15:50:00,
2014-10-01 11:52:00,84.1,78.0,29.94,West,275,2.0,9.0,82,0.02,,---,0.02,VWS V15.00,2014-10-01 15:52:00,
2014-10-01 11:53:00,84.2,78.1,29.94,West,274,3.0,9.0,82,0.02,,---,0.02,VWS V15.00,2014-10-01 15:53:00,
2014-10-01 11:57:00,84.6,77.0,29.94,WNW,288,5.0,8.0,78,0.02,,---,0.02,VWS V15.00,2014-10-01 15:57:00,
2014-10-01 11:58:00,84.7,77.5,29.94,WNW,290,6.0,8.0,79,0.02,,---,0.02,VWS V15.00,2014-10-01 15:58:00,
2014-10-01 11:59:00,84.7,77.5,29.94,WNW,286,6.0,7.0,79,0.02,,---,0.02,VWS V15.00,2014-10-01 15:59:00,
2014-10-01 12:03:00,85.0,77.8,29.94,WNW,289,4.0,8.0,79,0.02,,---,0.02,VWS V15.00,2014-10-01 16:03:00,
2014-10-01 12:04:00,85.1,77.9,29.94,WNW,289,3.0,4.0,79,0.02,,---,0.02,VWS V15.00,2014-10-01 16:04:00,
2014-10-01 12:05:00,85.1,78.2,29.94,WNW,290,5.0,7.0,80,0.02,,---,0.02,VWS V15.00,2014-10-01 16:05:00,
2014-10-01 12:08:00,85.3,78.4,29.94,WNW,287,2.0,8.0,80,0.02,,---,0.02,VWS V15.00,2014-10-01 16:08:00,
2014-10-01 12:09:00,85.4,78.2,29.94,WNW,287,3.0,6.0,79,0.01,,---,0.02,VWS V15.00,2014-10-01 16:09:00,
2014-10-01 12:13:00,85.4,77.4,29.94,WNW,289,5.0,5.0,77,0.00,,---,0.02,VWS V15.00,2014-10-01 16:13:00,
2014-10-01 12:14:00,85.3,77.3,29.94,WNW,290,7.0,7.0,77,0.00,,---,0.02,VWS V15.00,2014-10-01 16:14:00,
2014-10-01 12:15:00,85.2,76.8,29.94,WNW,288,4.0,9.0,76,0.00,,---,0.02,VWS V15.00,2014-10-01 16:15:00,
2014-10-01 12:20:00,85.4,77.0,29.94,WNW,288,2.0,9.0,76,0.00,,---,0.02,VWS V15.00,2014-10-01 16:20:00,
2014-10-01 12:21:00,85.4,77.0,29.94,WNW,288,7.0,9.0,76,0.00,,---,0.02,VWS V15.00,2014-10-01 16:21:00,
2014-10-01 12:23:00,85.6,78.0,29.94,WNW,288,1.0,9.0,78,0.00,,---,0.02,VWS V15.00,2014-10-01 16:23:00,
2014-10-01 12:25:00,85.8,77.4,29.94,West,279,0.0,8.0,76,0.00,,---,0.02,VWS V15.00,2014-10-01 16:25:00,
2014-10-01 12:26:00,85.9,77.9,29.94,West,279,2.0,8.0,77,0.00,,---,0.02,VWS V15.00,2014-10-01 16:26:00,
2014-10-01 12:29:00,86.2,78.2,29.94,WNW,294,3.0,3.0,77,0.00,,---,0.02,VWS V15.00,2014-10-01 16:29:00,
2014-10-01 12:31:00,86.4,77.9,29.94,WNW,292,1.0,7.0,76,0.00,,---,0.02,VWS V15.00,2014-10-01 16:31:00,
2014-10-01 12:32:00,86.5,78.0,29.94,WNW,292,3.0,7.0,76,0.00,,---,0.02,VWS V15.00,2014-10-01 16:32:00,
2014-10-01 12:35:00,86.7,77.8,29.94,WNW,292,7.0,8.0,75,0.00,,---,0.02,VWS V15.00,2014-10-01 16:35:00,
2014-10-01 12:36:00,86.6,76.9,29.94,WNW,292,3.0,8.0,73,0.00,,---,0.02,VWS V15.00,2014-10-01 16:36:00,
2014-10-01 12:37:00,86.6,77.3,29.94,WNW,290,7.0,8.0,74,0.00,,---,0.02,VWS V15.00,2014-10-01 16:37:00,
2014-10-01 12:41:00,86.5,77.2,29.94,WSW,252,5.0,9.0,74,0.00,,---,0.02,VWS V15.00,2014-10-01 16:41:00,
2014-10-01 12:42:00,86.5,77.2,29.94,WSW,241,4.0,9.0,74,0.00,,---,0.02,VWS V15.00,2014-10-01 16:42:00,
2014-10-01 12:46:00,86.7,77.4,29.94,SW,233,4.0,10.0,74,0.00,,---,0.02,VWS V15.00,2014-10-01 16:46:00,
2014-10-01 12:47:00,86.8,77.5,29.93,SW,223,5.0,10.0,74,0.00,,---,0.02,VWS V15.00,2014-10-01 16:47:00,
2014-10-01 12:48:00,86.9,77.6,29.93,WSW,242,3.0,10.0,74,0.00,,---,0.02,VWS V15.00,2014-10-01 16:48:00,
2014-10-01 12:51:00,86.9,77.2,29.93,WSW,242,8.0,9.0,73,0.00,,---,0.02,VWS V15.00,2014-10-01 16:51:00,
2014-10-01 12:53:00,86.9,76.8,29.93,West,273,3.0,10.0,72,0.00,,---,0.02,VWS V15.00,2014-10-01 16:53:00,
2014-10-01 12:56:00,86.9,77.2,29.93,West,278,3.0,11.0,73,0.00,,---,0.02,VWS V15.00,2014-10-01 16:56:00,
2014-10-01 12:58:00,87.0,77.3,29.93,West,266,5.0,11.0,73,0.00,,---,0.02,VWS V15.00,2014-10-01 16:58:00,
2014-10-01 13:01:00,87.1,77.4,29.93,WSW,257,2.0,11.0,73,0.00,,---,0.02,VWS V15.00,2014-10-01 17:01:00,
2014-10-01 13:04:00,87.0,77.7,29.93,WNW,286,3.0,3.0,74,0.00,,---,0.02,VWS V15.00,2014-10-01 17:04:00,
2014-10-01 13:07:00,87.0,77.7,29.93,WSW,244,1.0,8.0,74,0.00,,---,0.02,VWS V15.00,2014-10-01 17:07:00,
2014-10-01 13:10:00,87.1,77.0,29.93,SW,214,5.0,10.0,72,0.00,,---,0.02,VWS V15.00,2014-10-01 17:10:00,
2014-10-01 13:13:00,87.2,77.1,29.93,WSW,251,3.0,10.0,72,0.00,,---,0.02,VWS V15.00,2014-10-01 17:13:00,
2014-10-01 13:14:00,87.2,77.1,29.93,SW,235,6.0,10.0,72,0.00,,---,0.02,VWS V15.00,2014-10-01 17:14:00,
2014-10-01 13:16:00,87.2,77.5,29.93,SW,232,9.0,10.0,73,0.00,,---,0.02,VWS V15.00,2014-10-01 17:16:00,
2014-10-01 13:18:00,87.2,77.1,29.93,SSW,202,7.0,10.0,72,0.00,,---,0.02,VWS V15.00,2014-10-01 17:18:00,
2014-10-01 13:20:00,87.2,76.7,29.92,West,275,3.0,10.0,71,0.00,,---,0.02,VWS V15.00,2014-10-01 17:20:00,
2014-10-01 13:21:00,87.3,77.6,29.92,WSW,255,3.0,10.0,73,0.00,,---,0.02,VWS V15.00,2014-10-01 17:21:00,
2014-10-01 13:23:00,87.3,77.6,29.92,WNW,283,5.0,11.0,73,0.00,,---,0.02,VWS V15.00,2014-10-01 17:23:00,
2014-10-01 13:25:00,87.4,77.7,29.92,WNW,288,5.0,7.0,73,0.00,,---,0.02,VWS V15.00,2014-10-01 17:25:00,
2014-10-01 13:28:00,87.4,77.3,29.92,WSW,244,4.0,12.0,72,0.00,,---,0.02,VWS V15.00,2014-10-01 17:28:00,
2014-10-01 13:29:00,87.3,77.2,29.92,WSW,250,3.0,7.0,72,0.00,,---,0.02,VWS V15.00,2014-10-01 17:29:00,
2014-10-01 13:30:00,87.4,77.7,29.92,WNW,292,3.0,7.0,73,0.00,,---,0.02,VWS V15.00,2014-10-01 17:30:00,
2014-10-01 13:34:00,86.9,76.8,29.92,West,275,4.0,8.0,72,0.00,,---,0.02,VWS V15.00,2014-10-01 17:34:00,
2014-10-01 13:35:00,86.9,78.0,29.92,WNW,295,8.0,8.0,75,0.00,,---,0.02,VWS V15.00,2014-10-01 17:35:00,
2014-10-01 13:38:00,86.9,77.6,29.92,West,281,6.0,10.0,74,0.00,,---,0.02,VWS V15.00,2014-10-01 17:38:00,
2014-10-01 13:40:00,86.9,76.8,29.92,WNW,292,3.0,9.0,72,0.00,,---,0.02,VWS V15.00,2014-10-01 17:40:00,
2014-10-01 13:41:00,86.9,77.2,29.92,WNW,290,4.0,9.0,73,0.00,,---,0.02,VWS V15.00,2014-10-01 17:41:00,
2014-10-01 13:43:00,86.8,76.7,29.92,WNW,290,4.0,11.0,72,0.00,,---,0.02,VWS V15.00,2014-10-01 17:43:00,
2014-10-01 13:46:00,87.0,77.7,29.92,WSW,257,5.0,6.0,74,0.00,,---,0.02,VWS V15.00,2014-10-01 17:46:00,
2014-10-01 13:47:00,87.1,77.4,29.92,NW,305,7.0,14.0,73,0.00,,---,0.02,VWS V15.00,2014-10-01 17:47:00,
2014-10-01 13:48:00,87.1,77.0,29.92,WNW,298,5.0,14.0,72,0.00,,---,0.02,VWS V15.00,2014-10-01 17:48:00,
2014-10-01 13:50:00,86.9,77.2,29.92,WNW,284,4.0,11.0,73,0.00,,---,0.02,VWS V15.00,2014-10-01 17:50:00,
2014-10-01 13:53:00,87.1,77.8,29.92,WNW,284,8.0,11.0,74,0.00,,---,0.02,VWS V15.00,2014-10-01 17:53:00,
2014-10-01 13:57:00,87.3,78.0,29.92,WNW,282,4.0,6.0,74,0.00,,---,0.02,VWS V15.00,2014-10-01 17:57:00,
2014-10-01 13:58:00,87.3,78.4,29.92,West,273,7.0,8.0,75,0.00,,---,0.02,VWS V15.00,2014-10-01 17:58:00,
2014-10-01 14:01:00,87.3,77.6,29.92,WNW,282,9.0,10.0,73,0.00,,---,0.02,VWS V15.00,2014-10-01 18:01:00,
2014-10-01 14:04:00,87.2,77.1,29.91,West,275,9.0,9.0,72,0.00,,---,0.02,VWS V15.00,2014-10-01 18:04:00,
2014-10-01 14:05:00,87.2,76.7,29.91,WNW,296,8.0,10.0,71,0.00,,---,0.02,VWS V15.00,2014-10-01 18:05:00,
2014-10-01 14:07:00,87.1,77.0,29.91,WSW,247,6.0,10.0,72,0.00,,---,0.02,VWS V15.00,2014-10-01 18:07:00,
2014-10-01 14:10:00,87.2,77.1,29.91,WSW,248,3.0,8.0,72,0.00,,---,0.02,VWS V15.00,2014-10-01 18:10:00,
2014-10-01 14:12:00,87.3,77.2,29.91,West,271,5.0,9.0,72,0.00,,---,0.02,VWS V15.00,2014-10-01 18:12:00,
2014-10-01 14:16:00,87.5,77.4,29.91,WSW,252,5.0,8.0,72,0.00,,---,0.02,VWS V15.00,2014-10-01 18:16:00,
2014-10-01 14:18:00,87.5,77.4,29.91,WSW,246,2.0,8.0,72,0.00,,---,0.02,VWS V15.00,2014-10-01 18:18:00,
2014-10-01 14:19:00,87.6,77.5,29.91,WSW,237,3.0,6.0,72,0.00,,---,0.02,VWS V15.00,2014-10-01 18:19:00,
2014-10-01 14:22:00,87.7,77.6,29.91,WSW,246,12.0,12.0,72,0.00,,---,0.02,VWS V15.00,2014-10-01 18:22:00,
2014-10-01 14:23:00,87.7,77.6,29.91,West,279,4.0,4.0,72,0.00,,---,0.02,VWS V15.00,2014-10-01 18:23:00,
2014-10-01 14:27:00,87.8,77.7,29.91,West,279,9.0,10.0,72,0.00,,---,0.02,VWS V15.00,2014-10-01 18:27:00,
2014-10-01 14:29:00,87.5,77.4,29.91,WNW,297,5.0,5.0,72,0.00,,---,0.02,VWS V15.00,2014-10-01 18:29:00,
2014-10-01 14:30:00,87.2,77.1,29.90,WNW,298,5.0,10.0,72,0.00,,---,0.02,VWS V15.00,2014-10-01 18:30:00,
2014-10-01 14:33:00,87.1,77.0,29.90,WNW,298,6.0,10.0,72,0.00,,---,0.02,VWS V15.00,2014-10-01 18:33:00,
2014-10-01 14:35:00,87.1,77.8,29.90,West,271,7.0,11.0,74,0.00,,---,0.02,VWS V15.00,2014-10-01 18:35:00,
2014-10-01 14:36:00,87.1,77.4,29.90,WNW,287,7.0,11.0,73,0.00,,---,0.02,VWS V15.00,2014-10-01 18:36:00,
2014-10-01 14:38:00,87.1,77.4,29.90,WNW,298,5.0,11.0,73,0.00,,---,0.02,VWS V15.00,2014-10-01 18:38:00,
2014-10-01 14:41:00,87.2,77.1,29.90,West,281,5.0,12.0,72,0.00,,---,0.02,VWS V15.00,2014-10-01 18:41:00,
2014-10-01 14:43:00,87.0,77.3,29.90,WNW,301,6.0,12.0,73,0.00,,---,0.02,VWS V15.00,2014-10-01 18:43:00,
2014-10-01 14:44:00,87.1,77.4,29.90,WNW,296,7.0,7.0,73,0.00,,---,0.02,VWS V15.00,2014-10-01 18:44:00,
2014-10-01 14:49:00,87.5,77.4,29.90,West,281,4.0,7.0,72,0.00,,---,0.02,VWS V15.00,2014-10-01 18:49:00,
2014-10-01 14:50:00,87.5,77.4,29.90,WSW,254,12.0,12.0,72,0.00,,---,0.02,VWS V15.00,2014-10-01 18:50:00,
2014-10-01 14:51:00,87.5,76.9,29.90,WSW,256,9.0,12.0,71,0.00,,---,0.02,VWS V15.00,2014-10-01 18:51:00,
2014-10-01 14:55:00,87.3,76.8,29.90,West,274,1.0,5.0,71,0.00,,---,0.02,VWS V15.00,2014-10-01 18:55:00,
2014-10-01 14:57:00,87.5,76.9,29.90,West,281,5.0,8.0,71,0.00,,---,0.02,VWS V15.00,2014-10-01 18:57:00,
2014-10-01 15:00:00,87.7,76.7,29.90,WNW,299,7.0,11.0,70,0.00,,---,0.02,VWS V15.00,2014-10-01 19:00:00,
2014-10-01 15:01:00,87.5,76.5,29.90,WNW,294,7.0,11.0,70,0.00,,---,0.02,VWS V15.00,2014-10-01 19:01:00,
2014-10-01 15:02:00,87.4,76.4,29.90,WNW,293,7.0,11.0,70,0.00,,---,0.02,VWS V15.00,2014-10-01 19:02:00,
2014-10-01 15:05:00,87.1,76.1,29.90,WNW,294,7.0,12.0,70,0.00,,---,0.02,VWS V15.00,2014-10-01 19:05:00,
2014-10-01 15:06:00,87.0,76.0,29.90,SW,225,7.0,12.0,70,0.00,,---,0.02,VWS V15.00,2014-10-01 19:06:00,
2014-10-01 15:08:00,87.2,76.2,29.90,SW,233,3.0,12.0,70,0.00,,---,0.02,VWS V15.00,2014-10-01 19:08:00,
2014-10-01 15:12:00,87.5,76.5,29.90,WNW,288,8.0,9.0,70,0.00,,---,0.02,VWS V15.00,2014-10-01 19:12:00,
2014-10-01 15:13:00,87.4,76.8,29.90,WNW,284,7.0,11.0,71,0.00,,---,0.02,VWS V15.00,2014-10-01 19:13:00,
2014-10-01 15:17:00,87.4,76.8,29.90,WNW,292,6.0,12.0,71,0.00,,---,0.02,VWS V15.00,2014-10-01 19:17:00,
2014-10-01 15:19:00,87.4,77.3,29.90,WNW,287,3.0,6.0,72,0.00,,---,0.02,VWS V15.00,2014-10-01 19:19:00,
2014-10-01 15:21:00,87.5,76.9,29.90,West,275,3.0,7.0,71,0.00,,---,0.02,VWS V15.00,2014-10-01 19:21:00,
2014-10-01 15:24:00,87.5,76.5,29.90,WSW,239,8.0,11.0,70,0.00,,---,0.02,VWS V15.00,2014-10-01 19:24:00,
2014-10-01 15:26:00,87.7,77.1,29.90,WNW,287,4.0,11.0,71,0.00,,---,0.02,VWS V15.00,2014-10-01 19:26:00,
2014-10-01 15:27:00,87.7,77.6,29.90,WNW,290,5.0,13.0,72,0.00,,---,0.02,VWS V15.00,2014-10-01 19:27:00,
2014-10-01 15:30:00,87.7,76.7,29.90,West,267,4.0,9.0,70,0.00,,---,0.02,VWS V15.00,2014-10-01 19:30:00,
2014-10-01 15:33:00,87.8,77.7,29.90,SW,219,9.0,13.0,72,0.00,,---,0.02,VWS V15.00,2014-10-01 19:33:00,
2014-10-01 15:37:00,87.2,77.1,29.90,West,272,4.0,10.0,72,0.00,,---,0.02,VWS V15.00,2014-10-01 19:37:00,
2014-10-01 15:38:00,87.2,77.5,29.90,WNW,301,10.0,10.0,73,0.00,,---,0.02,VWS V15.00,2014-10-01 19:38:00,
2014-10-01 15:40:00,87.1,77.0,29.90,WNW,298,8.0,10.0,72,0.00,,---,0.02,VWS V15.00,2014-10-01 19:40:00,
2014-10-01 15:42:00,87.2,77.9,29.90,WSW,242,2.0,10.0,74,0.00,,---,0.02,VWS V15.00,2014-10-01 19:42:00,
2014-10-01 15:44:00,87.3,77.6,29.90,WNW,299,6.0,8.0,73,0.00,,---,0.02,VWS V15.00,2014-10-01 19:44:00,
2014-10-01 15:47:00,87.3,77.6,29.90,West,263,5.0,11.0,73,0.00,,---,0.02,VWS V15.00,2014-10-01 19:47:00,
2014-10-01 15:49:00,87.4,77.7,29.90,West,271,9.0,9.0,73,0.00,,---,0.02,VWS V15.00,2014-10-01 19:49:00,
2014-10-01 15:50:00,87.4,77.3,29.90,WNW,292,6.0,10.0,72,0.00,,---,0.02,VWS V15.00,2014-10-01 19:50:00,
2014-10-01 15:55:00,87.5,77.4,29.90,WNW,286,5.0,10.0,72,0.00,,---,0.02,VWS V15.00,2014-10-01 19:55:00,
2014-10-01 15:56:00,87.5,76.9,29.90,WNW,286,9.0,10.0,71,0.00,,---,0.02,VWS V15.00,2014-10-01 19:56:00,
2014-10-01 16:00:00,87.4,77.3,29.90,West,268,4.0,8.0,72,0.00,,---,0.02,VWS V15.00,2014-10-01 20:00:00,
2014-10-01 16:02:00,87.4,77.3,29.90,NW,304,11.0,11.0,72,0.00,,---,0.02,VWS V15.00,2014-10-01 20:02:00,
2014-10-01 16:06:00,87.4,77.3,29.89,WNW,290,7.0,8.0,72,0.00,,---,0.02,VWS V15.00,2014-10-01 20:06:00,
2014-10-01 16:08:00,87.1,77.0,29.90,WNW,297,6.0,9.0,72,0.00,,---,0.02,VWS V15.00,2014-10-01 20:08:00,
2014-10-01 16:09:00,87.0,77.3,29.90,WNW,283,6.0,8.0,73,0.00,,---,0.02,VWS V15.00,2014-10-01 20:09:00,
2014-10-01 16:13:00,86.7,77.0,29.90,WSW,258,6.0,12.0,73,0.00,,---,0.02,VWS V15.00,2014-10-01 20:13:00,
2014-10-01 16:14:00,86.7,77.4,29.90,WNW,299,9.0,9.0,74,0.00,,---,0.02,VWS V15.00,2014-10-01 20:14:00,
2014-10-01 16:18:00,86.7,77.4,29.90,West,275,6.0,12.0,74,0.00,,---,0.02,VWS V15.00,2014-10-01 20:18:00,
2014-10-01 16:20:00,86.6,76.9,29.89,West,279,10.0,13.0,73,0.00,,---,0.02,VWS V15.00,2014-10-01 20:20:00,
2014-10-01 16:25:00,86.7,77.4,29.90,WNW,293,6.0,9.0,74,0.00,,---,0.02,VWS V15.00,2014-10-01 20:25:00,
2014-10-01 16:26:00,86.8,77.5,29.90,WNW,291,7.0,9.0,74,0.00,,---,0.02,VWS V15.00,2014-10-01 20:26:00,
2014-10-01 16:27:00,86.8,77.5,29.90,West,264,6.0,10.0,74,0.00,,---,0.02,VWS V15.00,2014-10-01 20:27:00,
2014-10-01 16:30:00,87.0,77.7,29.90,WNW,295,7.0,9.0,74,0.00,,---,0.02,VWS V15.00,2014-10-01 20:30:00,
2014-10-01 16:31:00,86.9,77.6,29.90,WNW,286,4.0,9.0,74,0.00,,---,0.02,VWS V15.00,2014-10-01 20:31:00,
2014-10-01 16:35:00,87.1,77.4,29.90,WNW,297,7.0,9.0,73,0.00,,---,0.02,VWS V15.00,2014-10-01 20:35:00,
2014-10-01 16:37:00,87.0,77.7,29.90,WNW,302,8.0,11.0,74,0.00,,---,0.02,VWS V15.00,2014-10-01 20:37:00,
2014-10-01 16:38:00,86.9,77.2,29.89,WNW,292,5.0,11.0,73,0.00,,---,0.02,VWS V15.00,2014-10-01 20:38:00,
2014-10-01 16:43:00,86.8,76.3,29.90,WNW,302,9.0,11.0,71,0.00,,---,0.02,VWS V15.00,2014-10-01 20:43:00,
2014-10-01 16:45:00,86.7,77.0,29.89,WNW,299,7.0,8.0,73,0.00,,---,0.02,VWS V15.00,2014-10-01 20:45:00,
2014-10-01 16:48:00,86.6,76.5,29.89,WNW,289,6.0,10.0,72,0.00,,---,0.02,VWS V15.00,2014-10-01 20:48:00,
2014-10-01 16:50:00,86.7,77.0,29.89,WNW,291,7.0,9.0,73,0.00,,---,0.02,VWS V15.00,2014-10-01 20:50:00,
2014-10-01 16:51:00,86.7,76.6,29.90,West,267,5.0,9.0,72,0.00,,---,0.02,VWS V15.00,2014-10-01 20:51:00,
2014-10-01 16:54:00,86.9,76.8,29.89,SW,231,4.0,6.0,72,0.00,,---,0.02,VWS V15.00,2014-10-01 20:54:00,
2014-10-01 16:57:00,87.1,76.6,29.89,WNW,288,4.0,9.0,71,0.00,,---,0.02,VWS V15.00,2014-10-01 20:57:00,
2014-10-01 17:01:00,86.8,76.3,29.89,West,281,2.0,11.0,71,0.00,,---,0.02,VWS V15.00,2014-10-01 21:01:00,
2014-10-01 17:02:00,86.7,76.6,29.89,WNW,286,5.0,11.0,72,0.00,,---,0.02,VWS V15.00,2014-10-01 21:02:00,
2014-10-01 17:03:00,86.6,76.9,29.89,WNW,296,7.0,11.0,73,0.00,,---,0.02,VWS V15.00,2014-10-01 21:03:00,
2014-10-01 17:08:00,86.0,77.2,29.89,West,271,8.0,10.0,75,0.00,,---,0.02,VWS V15.00,2014-10-01 21:08:00,
2014-10-01 17:10:00,85.9,77.5,29.89,WNW,293,7.0,7.0,76,0.00,,---,0.02,VWS V15.00,2014-10-01 21:10:00,
2014-10-01 17:14:00,85.5,77.5,29.89,NW,304,6.0,7.0,77,0.00,,---,0.02,VWS V15.00,2014-10-01 21:14:00,
2014-10-01 17:16:00,85.5,77.5,29.89,NW,306,6.0,10.0,77,0.00,,---,0.02,VWS V15.00,2014-10-01 21:16:00,
2014-10-01 17:17:00,85.5,77.5,29.89,WNW,298,4.0,10.0,77,0.00,,---,0.02,VWS V15.00,2014-10-01 21:17:00,
2014-10-01 17:21:00,85.7,77.7,29.89,WNW,298,4.0,9.0,77,0.00,,---,0.02,VWS V15.00,2014-10-01 21:21:00,
2014-10-01 17:22:00,85.7,77.7,29.89,WNW,298,4.0,9.0,77,0.00,,---,0.02,VWS V15.00,2014-10-01 21:22:00,
2014-10-01 17:24:00,85.7,76.9,29.89,NW,304,8.0,9.0,75,0.00,,---,0.02,VWS V15.00,2014-10-01 21:24:00,
2014-10-01 17:27:00,85.6,77.2,29.89,WNW,290,8.0,10.0,76,0.00,,---,0.02,VWS V15.00,2014-10-01 21:27:00,
2014-10-01 17:28:00,85.6,77.2,29.89,WNW,293,8.0,10.0,76,0.00,,---,0.02,VWS V15.00,2014-10-01 21:28:00,
2014-10-01 17:30:00,85.6,77.2,29.89,WNW,298,9.0,9.0,76,0.00,,---,0.02,VWS V15.00,2014-10-01 21:30:00,
2014-10-01 17:34:00,85.8,77.4,29.89,WNW,302,6.0,7.0,76,0.00,,---,0.02,VWS V15.00,2014-10-01 21:34:00,
2014-10-01 17:35:00,85.9,77.5,29.89,WNW,302,6.0,7.0,76,0.00,,---,0.02,VWS V15.00,2014-10-01 21:35:00,
2014-10-01 17:36:00,85.9,77.5,29.89,WNW,302,4.0,7.0,76,0.00,,---,0.02,VWS V15.00,2014-10-01 21:36:00,
2014-10-01 17:40:00,86.1,76.0,29.89,WNW,291,8.0,11.0,72,0.00,,---,0.02,VWS V15.00,2014-10-01 21:40:00,
2014-10-01 17:43:00,86.1,75.6,29.89,WNW,288,7.0,11.0,71,0.00,,---,0.02,VWS V15.00,2014-10-01 21:43:00,
2014-10-01 17:45:00,86.1,75.2,29.90,WNW,301,4.0,8.0,70,0.00,,---,0.02,VWS V15.00,2014-10-01 21:45:00,
2014-10-01 17:46:00,86.1,75.2,29.89,WNW,286,6.0,10.0,70,0.00,,---,0.02,VWS V15.00,2014-10-01 21:46:00,
2014-10-01 17:48:00,86.2,75.7,29.89,WNW,283,5.0,10.0,71,0.00,,---,0.02,VWS V15.00,2014-10-01 21:48:00,
2014-10-01 17:51:00,86.2,75.7,29.89,WNW,285,6.0,9.0,71,0.00,,---,0.02,VWS V15.00,2014-10-01 21:51:00,
2014-10-01 17:52:00,86.2,75.7,29.89,WNW,285,6.0,9.0,71,0.00,,---,0.02,VWS V15.00,2014-10-01 21:52:00,
2014-10-01 17:53:00,86.2,76.1,29.89,WNW,285,5.0,9.0,72,0.00,,---,0.02,VWS V15.00,2014-10-01 21:53:00,
2014-10-01 17:57:00,86.1,75.6,29.89,WNW,287,5.0,8.0,71,0.00,,---,0.02,VWS V15.00,2014-10-01 21:57:00,
2014-10-01 17:58:00,86.1,76.0,29.89,WNW,287,4.0,8.0,72,0.00,,---,0.02,VWS V15.00,2014-10-01 21:58:00,
2014-10-01 18:03:00,86.1,76.0,29.89,WNW,284,4.0,8.0,72,0.00,,---,0.02,VWS V15.00,2014-10-01 22:03:00,
2014-10-01 18:04:00,86.1,76.0,29.89,WNW,284,7.0,7.0,72,0.00,,---,0.02,VWS V15.00,2014-10-01 22:04:00,
2014-10-01 18:08:00,86.1,76.4,29.89,NW,306,4.0,8.0,73,0.00,,---,0.02,VWS V15.00,2014-10-01 22:08:00,
2014-10-01 18:09:00,86.0,76.3,29.89,NW,306,4.0,8.0,73,0.00,,---,0.02,VWS V15.00,2014-10-01 22:09:00,
2014-10-01 18:10:00,86.0,76.3,29.89,NW,306,5.0,8.0,73,0.00,,---,0.02,VWS V15.00,2014-10-01 22:10:00,
2014-10-01 18:15:00,85.9,76.7,29.89,WNW,297,4.0,7.0,74,0.00,,---,0.02,VWS V15.00,2014-10-01 22:15:00,
2014-10-01 18:19:00,85.9,77.1,29.89,West,280,8.0,8.0,75,0.00,,---,0.02,VWS V15.00,2014-10-01 22:19:00,
2014-10-01 18:20:00,85.8,76.6,29.89,WNW,283,7.0,9.0,74,0.00,,---,0.02,VWS V15.00,2014-10-01 22:20:00,
2014-10-01 18:24:00,85.6,76.4,29.89,West,280,5.0,5.0,74,0.00,,---,0.02,VWS V15.00,2014-10-01 22:24:00,
2014-10-01 18:26:00,85.5,76.7,29.89,NW,304,5.0,9.0,75,0.00,,---,0.02,VWS V15.00,2014-10-01 22:26:00,
2014-10-01 18:30:00,85.1,76.7,29.89,WNW,297,7.0,8.0,76,0.00,,---,0.02,VWS V15.00,2014-10-01 22:30:00,
2014-10-01 18:31:00,85.0,76.6,29.89,WNW,297,5.0,8.0,76,0.00,,---,0.02,VWS V15.00,2014-10-01 22:31:00,
2014-10-01 18:34:00,84.9,76.9,29.90,NW,312,5.0,7.0,77,0.00,,---,0.02,VWS V15.00,2014-10-01 22:34:00,
2014-10-01 18:37:00,84.7,76.7,29.90,WNW,292,7.0,10.0,77,0.00,,---,0.02,VWS V15.00,2014-10-01 22:37:00,
2014-10-01 18:40:00,84.7,77.5,29.90,WNW,297,4.0,8.0,79,0.00,,---,0.02,VWS V15.00,2014-10-01 22:40:00,
2014-10-01 18:43:00,84.6,77.4,29.90,WNW,297,6.0,9.0,79,0.00,,---,0.02,VWS V15.00,2014-10-01 22:43:00,
2014-10-01 18:44:00,84.6,77.4,29.90,WNW,298,4.0,6.0,79,0.00,,---,0.02,VWS V15.00,2014-10-01 22:44:00,
2014-10-01 18:46:00,84.5,77.7,29.90,NW,315,4.0,8.0,80,0.00,,---,0.02,VWS V15.00,2014-10-01 22:46:00,
2014-10-01 18:49:00,84.5,77.7,29.90,NW,311,7.0,8.0,80,0.00,,---,0.02,VWS V15.00,2014-10-01 22:49:00,
2014-10-01 18:51:00,84.4,77.6,29.90,NW,306,4.0,9.0,80,0.00,,---,0.02,VWS V15.00,2014-10-01 22:51:00,
2014-10-01 18:54:00,84.2,77.7,29.90,NW,305,7.0,7.0,81,0.00,,---,0.02,VWS V15.00,2014-10-01 22:54:00,
2014-10-01 18:57:00,84.1,77.6,29.90,NW,309,3.0,9.0,81,0.00,,---,0.02,VWS V15.00,2014-10-01 22:57:00,
2014-10-01 18:58:00,84.1,77.6,29.90,NW,309,5.0,9.0,81,0.00,,---,0.02,VWS V15.00,2014-10-01 22:58:00,
2014-10-01 19:00:00,83.9,77.4,29.90,WNW,301,3.0,8.0,81,0.00,,---,0.02,VWS V15.00,2014-10-01 23:00:00,
2014-10-01 19:03:00,83.9,77.4,29.90,WNW,301,4.0,8.0,81,0.00,,---,0.02,VWS V15.00,2014-10-01 23:03:00,
2014-10-01 19:08:00,83.8,77.7,29.91,WNW,301,1.0,7.0,82,0.00,,---,0.02,VWS V15.00,2014-10-01 23:08:00,
2014-10-01 19:09:00,83.8,77.7,29.91,WNW,301,4.0,4.0,82,0.00,,---,0.02,VWS V15.00,2014-10-01 23:09:00,
2014-10-01 19:13:00,83.6,77.2,29.91,WNW,301,4.0,8.0,81,0.00,,---,0.02,VWS V15.00,2014-10-01 23:13:00,
2014-10-01 19:14:00,83.5,77.1,29.91,WNW,301,4.0,5.0,81,0.00,,---,0.02,VWS V15.00,2014-10-01 23:14:00,
2014-10-01 19:19:00,83.4,77.0,29.91,WNW,301,5.0,5.0,81,0.00,,---,0.02,VWS V15.00,2014-10-01 23:19:00,
2014-10-01 19:21:00,83.4,77.0,29.91,WNW,301,5.0,5.0,81,0.00,,---,0.02,VWS V15.00,2014-10-01 23:21:00,
2014-10-01 19:24:00,83.4,77.0,29.91,WNW,301,3.0,4.0,81,0.00,,---,0.02,VWS V15.00,2014-10-01 23:24:00,
2014-10-01 19:25:00,83.4,77.0,29.91,WNW,301,3.0,4.0,81,0.00,,---,0.02,VWS V15.00,2014-10-01 23:25:00,
2014-10-01 19:30:00,83.2,77.1,29.92,WNW,301,2.0,6.0,82,0.00,,---,0.02,VWS V15.00,2014-10-01 23:30:00,
2014-10-01 19:32:00,83.2,77.1,29.92,WNW,301,5.0,6.0,82,0.00,,---,0.02,VWS V15.00,2014-10-01 23:32:00,
2014-10-01 19:34:00,83.2,77.1,29.92,WNW,301,4.0,6.0,82,0.00,,---,0.02,VWS V15.00,2014-10-01 23:34:00,
2014-10-01 19:35:00,83.3,77.2,29.92,WNW,301,3.0,6.0,82,0.00,,---,0.02,VWS V15.00,2014-10-01 23:35:00,
2014-10-01 19:36:00,83.3,77.2,29.92,WNW,301,5.0,7.0,82,0.00,,---,0.02,VWS V15.00,2014-10-01 23:36:00,
2014-10-01 19:38:00,83.3,77.2,29.92,WNW,301,3.0,7.0,82,0.00,,---,0.02,VWS V15.00,2014-10-01 23:38:00,
2014-10-01 19:41:00,83.2,77.5,29.92,WNW,301,5.0,6.0,83,0.00,,---,0.02,VWS V15.00,2014-10-01 23:41:00,
2014-10-01 19:43:00,83.2,77.5,29.92,WNW,301,2.0,6.0,83,0.00,,---,0.02,VWS V15.00,2014-10-01 23:43:00,
2014-10-01 19:46:00,83.2,77.5,29.92,WNW,301,4.0,5.0,83,0.00,,---,0.02,VWS V15.00,2014-10-01 23:46:00,
2014-10-01 19:47:00,83.1,77.4,29.92,WNW,301,3.0,5.0,83,0.00,,---,0.02,VWS V15.00,2014-10-01 23:47:00,
2014-10-01 19:48:00,83.1,77.4,29.92,WNW,301,2.0,5.0,83,0.00,,---,0.02,VWS V15.00,2014-10-01 23:48:00,
2014-10-01 19:51:00,83.0,77.3,29.92,WNW,301,0.0,3.0,83,0.00,,---,0.02,VWS V15.00,2014-10-01 23:51:00,
2014-10-01 19:52:00,83.0,77.3,29.92,WNW,301,0.0,3.0,83,0.00,,---,0.02,VWS V15.00,2014-10-01 23:52:00,
2014-10-01 19:54:00,82.9,77.2,29.93,WNW,301,0.0,2.0,83,0.00,,---,0.02,VWS V15.00,2014-10-01 23:54:00,
2014-10-01 19:57:00,82.8,77.1,29.93,WNW,301,2.0,4.0,83,0.00,,---,0.02,VWS V15.00,2014-10-01 23:57:00,
2014-10-01 19:58:00,82.8,77.5,29.92,WNW,301,1.0,4.0,84,0.00,,---,0.02,VWS V15.00,2014-10-01 23:58:00,
2014-10-01 20:03:00,82.7,77.4,29.93,WNW,301,2.0,5.0,84,0.00,,---,0.02,VWS V15.00,2014-10-02 00:03:00,
2014-10-01 20:08:00,82.6,77.3,29.93,WNW,301,2.0,5.0,84,0.00,,---,0.02,VWS V15.00,2014-10-02 00:08:00,
2014-10-01 20:09:00,82.6,77.3,29.93,WNW,301,2.0,4.0,84,0.00,,---,0.02,VWS V15.00,2014-10-02 00:09:00,
2014-10-01 20:13:00,82.5,77.2,29.93,WNW,301,1.0,5.0,84,0.00,,---,0.02,VWS V15.00,2014-10-02 00:13:00,
2014-10-01 20:14:00,82.4,77.1,29.93,WNW,301,2.0,2.0,84,0.00,,---,0.02,VWS V15.00,2014-10-02 00:14:00,
2014-10-01 20:15:00,82.4,77.1,29.93,WNW,301,4.0,6.0,84,0.00,,---,0.02,VWS V15.00,2014-10-02 00:15:00,
2014-10-01 20:19:00,82.4,77.1,29.93,WNW,301,4.0,4.0,84,0.00,,---,0.02,VWS V15.00,2014-10-02 00:19:00,
2014-10-01 20:24:00,82.3,77.0,29.94,WNW,301,5.0,5.0,84,0.00,,---,0.02,VWS V15.00,2014-10-02 00:24:00,
2014-10-01 20:25:00,82.3,77.0,29.94,WNW,301,3.0,5.0,84,0.00,,---,0.02,VWS V15.00,2014-10-02 00:25:00,
2014-10-01 20:29:00,82.3,77.3,29.94,WNW,301,0.0,0.0,85,0.00,,---,0.02,VWS V15.00,2014-10-02 00:29:00,
2014-10-01 20:30:00,82.3,77.3,29.94,WNW,301,2.0,5.0,85,0.00,,---,0.02,VWS V15.00,2014-10-02 00:30:00,
2014-10-01 20:34:00,82.2,76.9,29.94,WNW,301,2.0,6.0,84,0.00,,---,0.02,VWS V15.00,2014-10-02 00:34:00,
2014-10-01 20:35:00,82.2,76.9,29.94,WNW,301,0.0,6.0,84,0.00,,---,0.02,VWS V15.00,2014-10-02 00:35:00,
2014-10-01 20:36:00,82.2,76.9,29.94,WNW,301,2.0,6.0,84,0.00,,---,0.02,VWS V15.00,2014-10-02 00:36:00,
2014-10-01 20:40:00,82.2,77.2,29.94,WNW,301,3.0,5.0,85,0.00,,---,0.02,VWS V15.00,2014-10-02 00:40:00,
2014-10-01 20:42:00,82.2,76.9,29.94,WNW,301,1.0,5.0,84,0.00,,---,0.02,VWS V15.00,2014-10-02 00:42:00,
2014-10-01 20:45:00,82.1,77.2,29.94,WNW,301,4.0,4.0,85,0.00,,---,0.02,VWS V15.00,2014-10-02 00:45:00,
2014-10-01 20:47:00,82.1,77.5,29.94,WNW,301,1.0,4.0,86,0.00,,---,0.02,VWS V15.00,2014-10-02 00:47:00,
2014-10-01 20:50:00,82.1,77.5,29.94,WNW,301,1.0,4.0,86,0.00,,---,0.02,VWS V15.00,2014-10-02 00:50:00,
2014-10-01 20:52:00,82.1,77.5,29.94,WNW,301,0.0,4.0,86,0.00,,---,0.02,VWS V15.00,2014-10-02 00:52:00,
2014-10-01 20:56:00,82.0,77.8,29.95,WNW,301,1.0,3.0,87,0.00,,---,0.02,VWS V15.00,2014-10-02 00:56:00,
2014-10-01 20:57:00,82.0,77.4,29.95,WNW,301,3.0,3.0,86,0.00,,---,0.02,VWS V15.00,2014-10-02 00:57:00,
2014-10-01 20:58:00,82.0,77.4,29.95,WNW,301,0.0,4.0,86,0.00,,---,0.02,VWS V15.00,2014-10-02 00:58:00,
2014-10-01 21:01:00,82.0,77.4,29.95,WNW,301,0.0,2.0,86,0.00,,---,0.02,VWS V15.00,2014-10-02 01:01:00,
2014-10-01 21:06:00,81.9,77.3,29.95,WNW,301,2.0,4.0,86,0.00,,---,0.02,VWS V15.00,2014-10-02 01:06:00,
2014-10-01 21:11:00,82.0,77.4,29.95,WNW,301,0.0,2.0,86,0.00,,---,0.02,VWS V15.00,2014-10-02 01:11:00,
2014-10-01 21:13:00,82.0,77.4,29.96,WNW,301,2.0,6.0,86,0.00,,---,0.02,VWS V15.00,2014-10-02 01:13:00,
2014-10-01 21:14:00,82.0,77.4,29.96,WNW,301,0.0,4.0,86,0.00,,---,0.02,VWS V15.00,2014-10-02 01:14:00,
2014-10-01 21:18:00,81.9,77.3,29.96,WNW,301,3.0,6.0,86,0.00,,---,0.02,VWS V15.00,2014-10-02 01:18:00,
2014-10-01 21:19:00,82.0,77.4,29.96,WNW,301,4.0,4.0,86,0.00,,---,0.02,VWS V15.00,2014-10-02 01:19:00,
2014-10-01 21:20:00,81.9,77.3,29.96,WNW,301,0.0,4.0,86,0.00,,---,0.02,VWS V15.00,2014-10-02 01:20:00,
2014-10-01 21:22:00,81.9,77.3,29.96,WNW,301,3.0,4.0,86,0.00,,---,0.02,VWS V15.00,2014-10-02 01:22:00,
2014-10-01 21:23:00,81.9,77.3,29.96,WNW,301,3.0,5.0,86,0.00,,---,0.02,VWS V15.00,2014-10-02 01:23:00,
2014-10-01 21:25:00,81.9,77.3,29.96,WNW,301,2.0,5.0,86,0.00,,---,0.02,VWS V15.00,2014-10-02 01:25:00,
2014-10-01 21:29:00,81.8,77.2,29.96,WNW,301,1.0,2.0,86,0.00,,---,0.02,VWS V15.00,2014-10-02 01:29:00,
2014-10-01 21:30:00,81.8,76.8,29.96,WNW,301,0.0,3.0,85,0.00,,---,0.02,VWS V15.00,2014-10-02 01:30:00,
2014-10-01 21:31:00,81.9,76.9,29.96,WNW,301,4.0,5.0,85,0.00,,---,0.02,VWS V15.00,2014-10-02 01:31:00,
2014-10-01 21:35:00,81.8,77.2,29.96,WNW,301,2.0,5.0,86,0.00,,---,0.02,VWS V15.00,2014-10-02 01:35:00,
2014-10-01 21:37:00,81.9,77.3,29.96,WNW,301,1.0,5.0,86,0.00,,---,0.02,VWS V15.00,2014-10-02 01:37:00,
2014-10-01 21:38:00,81.8,76.8,29.96,WNW,301,3.0,5.0,85,0.00,,---,0.02,VWS V15.00,2014-10-02 01:38:00,
2014-10-01 21:40:00,81.9,76.9,29.96,WNW,301,0.0,4.0,85,0.00,,---,0.02,VWS V15.00,2014-10-02 01:40:00,
2014-10-01 21:42:00,81.8,76.8,29.97,WNW,301,1.0,6.0,85,0.00,,---,0.02,VWS V15.00,2014-10-02 01:42:00,
2014-10-01 21:45:00,81.8,76.8,29.97,WNW,301,0.0,1.0,85,0.00,,---,0.02,VWS V15.00,2014-10-02 01:45:00,
2014-10-01 21:50:00,81.8,77.2,29.97,WNW,301,1.0,1.0,86,0.00,,---,0.02,VWS V15.00,2014-10-02 01:50:00,
2014-10-01 21:51:00,81.8,77.2,29.97,WNW,301,1.0,3.0,86,0.00,,---,0.02,VWS V15.00,2014-10-02 01:51:00,
2014-10-01 21:52:00,81.8,77.2,29.97,WNW,301,1.0,3.0,86,0.00,,---,0.02,VWS V15.00,2014-10-02 01:52:00,
2014-10-01 21:57:00,81.7,77.1,29.97,WNW,301,1.0,3.0,86,0.00,,---,0.02,VWS V15.00,2014-10-02 01:57:00,
2014-10-01 21:58:00,81.7,77.1,29.97,WNW,301,1.0,3.0,86,0.00,,---,0.02,VWS V15.00,2014-10-02 01:58:00,
2014-10-01 22:03:00,81.6,77.0,29.97,WNW,301,1.0,1.0,86,0.00,,---,0.02,VWS V15.00,2014-10-02 02:03:00,
2014-10-01 22:04:00,81.6,77.0,29.97,WNW,301,0.0,1.0,86,0.00,,---,0.02,VWS V15.00,2014-10-02 02:04:00,
2014-10-01 22:08:00,81.5,76.9,29.97,WNW,301,1.0,3.0,86,0.00,,---,0.02,VWS V15.00,2014-10-02 02:08:00,
2014-10-01 22:09:00,81.4,76.8,29.97,WNW,301,1.0,3.0,86,0.00,,---,0.02,VWS V15.00,2014-10-02 02:09:00,
2014-10-01 22:14:00,81.4,76.8,29.97,WNW,301,0.0,3.0,86,0.00,,---,0.02,VWS V15.00,2014-10-02 02:14:00,
2014-10-01 22:16:00,81.4,76.8,29.97,WNW,301,1.0,3.0,86,0.00,,---,0.02,VWS V15.00,2014-10-02 02:16:00,
2014-10-01 22:21:00,81.3,77.1,29.98,WNW,301,0.0,2.0,87,0.00,,---,0.02,VWS V15.00,2014-10-02 02:21:00,
2014-10-01 22:23:00,81.3,76.7,29.98,WNW,301,1.0,2.0,86,0.00,,---,0.02,VWS V15.00,2014-10-02 02:23:00,
2014-10-01 22:27:00,81.3,76.7,29.98,WNW,301,0.0,3.0,86,0.00,,---,0.02,VWS V15.00,2014-10-02 02:27:00,
2014-10-01 22:28:00,81.2,77.0,29.98,WNW,301,0.0,3.0,87,0.00,,---,0.02,VWS V15.00,2014-10-02 02:28:00,
2014-10-01 22:30:00,81.2,77.0,29.98,WNW,301,0.0,1.0,87,0.00,,---,0.02,VWS V15.00,2014-10-02 02:30:00,
2014-10-01 22:33:00,81.2,77.0,29.98,WNW,301,1.0,1.0,87,0.00,,---,0.02,VWS V15.00,2014-10-02 02:33:00,
2014-10-01 22:38:00,81.0,76.8,29.98,WNW,301,0.0,1.0,87,0.00,,---,0.02,VWS V15.00,2014-10-02 02:38:00,
2014-10-01 22:39:00,80.9,76.7,29.98,WNW,301,0.0,0.0,87,0.00,,---,0.02,VWS V15.00,2014-10-02 02:39:00,
2014-10-01 22:40:00,80.9,76.7,29.98,WNW,301,0.0,1.0,87,0.00,,---,0.02,VWS V15.00,2014-10-02 02:40:00,
2014-10-01 22:43:00,80.8,76.6,29.98,WNW,301,0.0,1.0,87,0.00,,---,0.02,VWS V15.00,2014-10-02 02:43:00,
2014-10-01 22:45:00,80.7,76.5,29.98,WNW,301,0.0,1.0,87,0.00,,---,0.02,VWS V15.00,2014-10-02 02:45:00,
2014-10-01 22:48:00,80.7,76.5,29.98,WNW,301,0.0,1.0,87,0.00,,---,0.02,VWS V15.00,2014-10-02 02:48:00,
2014-10-01 22:51:00,80.6,76.4,29.98,WNW,301,0.0,1.0,87,0.00,,---,0.02,VWS V15.00,2014-10-02 02:51:00,
2014-10-01 22:53:00,80.6,76.7,29.98,WNW,301,0.0,1.0,88,0.00,,---,0.02,VWS V15.00,2014-10-02 02:53:00,
2014-10-01 22:56:00,80.5,76.6,29.98,WNW,301,0.0,1.0,88,0.00,,---,0.02,VWS V15.00,2014-10-02 02:56:00,
2014-10-01 22:59:00,80.5,76.6,29.98,WNW,301,0.0,0.0,88,0.00,,---,0.02,VWS V15.00,2014-10-02 02:59:00,
2014-10-01 23:00:00,80.5,76.6,29.98,WNW,301,0.0,0.0,88,0.00,,---,0.02,VWS V15.00,2014-10-02 03:00:00,
2014-10-01 23:04:00,80.5,76.6,29.98,WNW,301,0.0,0.0,88,0.00,,---,0.02,VWS V15.00,2014-10-02 03:04:00,
2014-10-01 23:05:00,80.5,76.6,29.98,WNW,301,0.0,0.0,88,0.00,,---,0.02,VWS V15.00,2014-10-02 03:05:00,
2014-10-01 23:11:00,80.4,76.2,29.98,WNW,301,0.0,1.0,87,0.00,,---,0.02,VWS V15.00,2014-10-02 03:11:00,
2014-10-01 23:13:00,80.4,76.2,29.98,WNW,301,0.0,1.0,87,0.00,,---,0.02,VWS V15.00,2014-10-02 03:13:00,
2014-10-01 23:14:00,80.4,76.2,29.98,WNW,301,0.0,0.0,87,0.00,,---,0.02,VWS V15.00,2014-10-02 03:14:00,
2014-10-01 23:16:00,80.3,76.1,29.98,WNW,301,0.0,0.0,87,0.00,,---,0.02,VWS V15.00,2014-10-02 03:16:00,
2014-10-01 23:18:00,80.3,76.1,29.98,WNW,301,0.0,1.0,87,0.00,,---,0.02,VWS V15.00,2014-10-02 03:18:00,
2014-10-01 23:20:00,80.3,76.1,29.98,WNW,301,0.0,0.0,87,0.00,,---,0.02,VWS V15.00,2014-10-02 03:20:00,
2014-10-01 23:21:00,80.3,76.1,29.98,WNW,301,0.0,1.0,87,0.00,,---,0.02,VWS V15.00,2014-10-02 03:21:00,
2014-10-01 23:26:00,80.3,76.4,29.98,WNW,301,0.0,0.0,88,0.00,,---,0.02,VWS V15.00,2014-10-02 03:26:00,
2014-10-01 23:27:00,80.3,76.4,29.98,WNW,301,0.0,0.0,88,0.00,,---,0.02,VWS V15.00,2014-10-02 03:27:00,
2014-10-01 23:28:00,80.3,76.4,29.98,WNW,301,0.0,0.0,88,0.00,,---,0.02,VWS V15.00,2014-10-02 03:28:00,